<?xml version="1.0" encoding="UTF-8" standalone="no" ?>
<gpx xmlns="http://www.topografix.com/GPX/1/1" xmlns:xsi="http://www.w3.org/2001/XMLSchema-instance" xsi:schemaLocation="http://www.topografix.com/GPX/1/1 http://www.topografix.com/GPX/1/1/gpx.xsd" version="1.1" creator="VisuGPX - https://www.visugpx.com">
  <metadata>
    <name>boucle le Monal Savoie</name>
    <desc><![CDATA[Départ sur la route vers le hameau Chenal, juste,juste avant le tunnel. Passer Chenal ; La Combaz. Le Monal : option longue- traverser le hameau, suivre le sentier vers \\\"le rocher blanc \\\" après une belle montée en sentier de forêt, celle-ci se raidit sur 300m , prendre le sentier large (route) à droite pour le retour. Option courte suivre l\\\'indication de retour
Nota : option longue le mieux prévoir sur la journée. Rocher d\\\'escalade aménagé dans le goulet juste avant Le Monal ]]></desc>
  </metadata>
  <trk>
    <name><![CDATA[215-03-19 LE MONAL]]></name>
    <trkseg>
      <trkpt lat="45.53741" lon="6.91288">
        <ele>1538.73</ele>
        <time>2015-03-19T08:51:40Z</time>
      </trkpt>
      <trkpt lat="45.5374" lon="6.91296">
        <ele>1536.8</ele>
        <time>2015-03-19T08:53:29Z</time>
      </trkpt>
      <trkpt lat="45.5374" lon="6.91284">
        <ele>1536.32</ele>
        <time>2015-03-19T08:53:50Z</time>
      </trkpt>
      <trkpt lat="45.53745" lon="6.91271">
        <ele>1535.36</ele>
        <time>2015-03-19T08:55:17Z</time>
      </trkpt>
      <trkpt lat="45.53754" lon="6.91262">
        <ele>1535.36</ele>
        <time>2015-03-19T08:55:33Z</time>
      </trkpt>
      <trkpt lat="45.5376" lon="6.91279">
        <ele>1536.32</ele>
        <time>2015-03-19T08:56:04Z</time>
      </trkpt>
      <trkpt lat="45.53755" lon="6.91298">
        <ele>1534.4</ele>
        <time>2015-03-19T08:59:03Z</time>
      </trkpt>
      <trkpt lat="45.53751" lon="6.91311">
        <ele>1535.36</ele>
        <time>2015-03-19T08:59:20Z</time>
      </trkpt>
      <trkpt lat="45.53743" lon="6.91324">
        <ele>1536.32</ele>
        <time>2015-03-19T08:59:39Z</time>
      </trkpt>
      <trkpt lat="45.53739" lon="6.91334">
        <ele>1537.29</ele>
        <time>2015-03-19T08:59:54Z</time>
      </trkpt>
      <trkpt lat="45.53734" lon="6.91348">
        <ele>1538.73</ele>
        <time>2015-03-19T09:00:13Z</time>
      </trkpt>
      <trkpt lat="45.53728" lon="6.9136">
        <ele>1539.69</ele>
        <time>2015-03-19T09:00:30Z</time>
      </trkpt>
      <trkpt lat="45.53722" lon="6.91373">
        <ele>1540.17</ele>
        <time>2015-03-19T09:00:47Z</time>
      </trkpt>
      <trkpt lat="45.53717" lon="6.91385">
        <ele>1541.61</ele>
        <time>2015-03-19T09:01:02Z</time>
      </trkpt>
      <trkpt lat="45.53714" lon="6.91398">
        <ele>1542.09</ele>
        <time>2015-03-19T09:01:19Z</time>
      </trkpt>
      <trkpt lat="45.53716" lon="6.91413">
        <ele>1543.53</ele>
        <time>2015-03-19T09:01:37Z</time>
      </trkpt>
      <trkpt lat="45.53716" lon="6.91409">
        <ele>1544.01</ele>
        <time>2015-03-19T09:02:03Z</time>
      </trkpt>
      <trkpt lat="45.53721" lon="6.914">
        <ele>1545.46</ele>
        <time>2015-03-19T09:02:18Z</time>
      </trkpt>
      <trkpt lat="45.53726" lon="6.9139">
        <ele>1545.46</ele>
        <time>2015-03-19T09:02:37Z</time>
      </trkpt>
      <trkpt lat="45.53734" lon="6.91378">
        <ele>1546.42</ele>
        <time>2015-03-19T09:02:51Z</time>
      </trkpt>
      <trkpt lat="45.53742" lon="6.91365">
        <ele>1546.9</ele>
        <time>2015-03-19T09:03:07Z</time>
      </trkpt>
      <trkpt lat="45.5375" lon="6.91356">
        <ele>1547.86</ele>
        <time>2015-03-19T09:03:21Z</time>
      </trkpt>
      <trkpt lat="45.53757" lon="6.91346">
        <ele>1548.82</ele>
        <time>2015-03-19T09:03:35Z</time>
      </trkpt>
      <trkpt lat="45.53766" lon="6.91337">
        <ele>1549.3</ele>
        <time>2015-03-19T09:03:48Z</time>
      </trkpt>
      <trkpt lat="45.53774" lon="6.91328">
        <ele>1549.78</ele>
        <time>2015-03-19T09:04:01Z</time>
      </trkpt>
      <trkpt lat="45.53781" lon="6.91317">
        <ele>1551.22</ele>
        <time>2015-03-19T09:04:15Z</time>
      </trkpt>
      <trkpt lat="45.53787" lon="6.91307">
        <ele>1551.22</ele>
        <time>2015-03-19T09:04:28Z</time>
      </trkpt>
      <trkpt lat="45.53794" lon="6.91307">
        <ele>1549.3</ele>
        <time>2015-03-19T09:08:04Z</time>
      </trkpt>
      <trkpt lat="45.53797" lon="6.91306">
        <ele>1548.34</ele>
        <time>2015-03-19T09:09:19Z</time>
      </trkpt>
      <trkpt lat="45.53806" lon="6.91299">
        <ele>1547.86</ele>
        <time>2015-03-19T09:09:30Z</time>
      </trkpt>
      <trkpt lat="45.53815" lon="6.91294">
        <ele>1548.82</ele>
        <time>2015-03-19T09:09:42Z</time>
      </trkpt>
      <trkpt lat="45.53826" lon="6.91288">
        <ele>1549.3</ele>
        <time>2015-03-19T09:09:57Z</time>
      </trkpt>
      <trkpt lat="45.53836" lon="6.91281">
        <ele>1550.26</ele>
        <time>2015-03-19T09:10:11Z</time>
      </trkpt>
      <trkpt lat="45.53851" lon="6.91283">
        <ele>1551.71</ele>
        <time>2015-03-19T09:10:27Z</time>
      </trkpt>
      <trkpt lat="45.53858" lon="6.91299">
        <ele>1553.63</ele>
        <time>2015-03-19T09:10:47Z</time>
      </trkpt>
      <trkpt lat="45.53851" lon="6.91316">
        <ele>1555.55</ele>
        <time>2015-03-19T09:11:05Z</time>
      </trkpt>
      <trkpt lat="45.53842" lon="6.91339">
        <ele>1556.99</ele>
        <time>2015-03-19T09:11:30Z</time>
      </trkpt>
      <trkpt lat="45.53832" lon="6.91351">
        <ele>1558.43</ele>
        <time>2015-03-19T09:11:51Z</time>
      </trkpt>
      <trkpt lat="45.53823" lon="6.91361">
        <ele>1559.88</ele>
        <time>2015-03-19T09:12:10Z</time>
      </trkpt>
      <trkpt lat="45.53818" lon="6.91374">
        <ele>1561.32</ele>
        <time>2015-03-19T09:12:27Z</time>
      </trkpt>
      <trkpt lat="45.53813" lon="6.91387">
        <ele>1562.76</ele>
        <time>2015-03-19T09:12:44Z</time>
      </trkpt>
      <trkpt lat="45.53804" lon="6.914">
        <ele>1564.2</ele>
        <time>2015-03-19T09:13:02Z</time>
      </trkpt>
      <trkpt lat="45.53799" lon="6.91413">
        <ele>1566.12</ele>
        <time>2015-03-19T09:13:18Z</time>
      </trkpt>
      <trkpt lat="45.53795" lon="6.91428">
        <ele>1566.61</ele>
        <time>2015-03-19T09:13:36Z</time>
      </trkpt>
      <trkpt lat="45.53782" lon="6.91456">
        <ele>1567.57</ele>
        <time>2015-03-19T09:15:35Z</time>
      </trkpt>
      <trkpt lat="45.5377" lon="6.91464">
        <ele>1569.01</ele>
        <time>2015-03-19T09:15:49Z</time>
      </trkpt>
      <trkpt lat="45.53759" lon="6.91471">
        <ele>1569.97</ele>
        <time>2015-03-19T09:16:02Z</time>
      </trkpt>
      <trkpt lat="45.5375" lon="6.91482">
        <ele>1571.41</ele>
        <time>2015-03-19T09:16:19Z</time>
      </trkpt>
      <trkpt lat="45.53756" lon="6.91481">
        <ele>1572.85</ele>
        <time>2015-03-19T09:16:35Z</time>
      </trkpt>
      <trkpt lat="45.53761" lon="6.91468">
        <ele>1573.82</ele>
        <time>2015-03-19T09:16:48Z</time>
      </trkpt>
      <trkpt lat="45.53769" lon="6.91461">
        <ele>1574.78</ele>
        <time>2015-03-19T09:17:02Z</time>
      </trkpt>
      <trkpt lat="45.53777" lon="6.91457">
        <ele>1575.74</ele>
        <time>2015-03-19T09:17:16Z</time>
      </trkpt>
      <trkpt lat="45.53789" lon="6.91453">
        <ele>1576.22</ele>
        <time>2015-03-19T09:17:32Z</time>
      </trkpt>
      <trkpt lat="45.53798" lon="6.91448">
        <ele>1577.66</ele>
        <time>2015-03-19T09:17:48Z</time>
      </trkpt>
      <trkpt lat="45.53807" lon="6.91439">
        <ele>1578.14</ele>
        <time>2015-03-19T09:18:03Z</time>
      </trkpt>
      <trkpt lat="45.53814" lon="6.91431">
        <ele>1579.1</ele>
        <time>2015-03-19T09:18:18Z</time>
      </trkpt>
      <trkpt lat="45.5382" lon="6.9142">
        <ele>1580.06</ele>
        <time>2015-03-19T09:18:32Z</time>
      </trkpt>
      <trkpt lat="45.53829" lon="6.91414">
        <ele>1582.47</ele>
        <time>2015-03-19T09:18:58Z</time>
      </trkpt>
      <trkpt lat="45.53827" lon="6.91433">
        <ele>1583.43</ele>
        <time>2015-03-19T09:19:17Z</time>
      </trkpt>
      <trkpt lat="45.53822" lon="6.91454">
        <ele>1585.35</ele>
        <time>2015-03-19T09:19:39Z</time>
      </trkpt>
      <trkpt lat="45.5381" lon="6.91473">
        <ele>1586.79</ele>
        <time>2015-03-19T09:20:00Z</time>
      </trkpt>
      <trkpt lat="45.53802" lon="6.91484">
        <ele>1587.27</ele>
        <time>2015-03-19T09:21:52Z</time>
      </trkpt>
      <trkpt lat="45.53793" lon="6.91494">
        <ele>1588.72</ele>
        <time>2015-03-19T09:22:09Z</time>
      </trkpt>
      <trkpt lat="45.53792" lon="6.91493">
        <ele>1589.2</ele>
        <time>2015-03-19T09:22:26Z</time>
      </trkpt>
      <trkpt lat="45.53797" lon="6.9148">
        <ele>1590.64</ele>
        <time>2015-03-19T09:22:40Z</time>
      </trkpt>
      <trkpt lat="45.53803" lon="6.9147">
        <ele>1592.08</ele>
        <time>2015-03-19T09:22:54Z</time>
      </trkpt>
      <trkpt lat="45.53813" lon="6.91462">
        <ele>1592.56</ele>
        <time>2015-03-19T09:23:09Z</time>
      </trkpt>
      <trkpt lat="45.53823" lon="6.91456">
        <ele>1594.48</ele>
        <time>2015-03-19T09:23:27Z</time>
      </trkpt>
      <trkpt lat="45.5383" lon="6.91445">
        <ele>1595.93</ele>
        <time>2015-03-19T09:23:43Z</time>
      </trkpt>
      <trkpt lat="45.5384" lon="6.91437">
        <ele>1597.37</ele>
        <time>2015-03-19T09:23:58Z</time>
      </trkpt>
      <trkpt lat="45.53849" lon="6.91427">
        <ele>1598.33</ele>
        <time>2015-03-19T09:24:12Z</time>
      </trkpt>
      <trkpt lat="45.53856" lon="6.91419">
        <ele>1599.77</ele>
        <time>2015-03-19T09:24:27Z</time>
      </trkpt>
      <trkpt lat="45.5386" lon="6.91436">
        <ele>1601.21</ele>
        <time>2015-03-19T09:24:49Z</time>
      </trkpt>
      <trkpt lat="45.53854" lon="6.91453">
        <ele>1602.66</ele>
        <time>2015-03-19T09:25:05Z</time>
      </trkpt>
      <trkpt lat="45.53847" lon="6.91467">
        <ele>1604.1</ele>
        <time>2015-03-19T09:25:19Z</time>
      </trkpt>
      <trkpt lat="45.53843" lon="6.91481">
        <ele>1604.58</ele>
        <time>2015-03-19T09:25:34Z</time>
      </trkpt>
      <trkpt lat="45.53846" lon="6.91483">
        <ele>1606.02</ele>
        <time>2015-03-19T09:25:51Z</time>
      </trkpt>
      <trkpt lat="45.53847" lon="6.91469">
        <ele>1607.46</ele>
        <time>2015-03-19T09:26:04Z</time>
      </trkpt>
      <trkpt lat="45.53853" lon="6.91461">
        <ele>1607.94</ele>
        <time>2015-03-19T09:26:17Z</time>
      </trkpt>
      <trkpt lat="45.53863" lon="6.91457">
        <ele>1608.9</ele>
        <time>2015-03-19T09:26:31Z</time>
      </trkpt>
      <trkpt lat="45.53872" lon="6.91444">
        <ele>1610.35</ele>
        <time>2015-03-19T09:26:46Z</time>
      </trkpt>
      <trkpt lat="45.53879" lon="6.91436">
        <ele>1611.31</ele>
        <time>2015-03-19T09:27:49Z</time>
      </trkpt>
      <trkpt lat="45.53892" lon="6.91426">
        <ele>1612.75</ele>
        <time>2015-03-19T09:28:13Z</time>
      </trkpt>
      <trkpt lat="45.53897" lon="6.91416">
        <ele>1613.23</ele>
        <time>2015-03-19T09:28:27Z</time>
      </trkpt>
      <trkpt lat="45.53903" lon="6.91409">
        <ele>1614.67</ele>
        <time>2015-03-19T09:29:04Z</time>
      </trkpt>
      <trkpt lat="45.53912" lon="6.91402">
        <ele>1616.11</ele>
        <time>2015-03-19T09:29:16Z</time>
      </trkpt>
      <trkpt lat="45.53922" lon="6.91404">
        <ele>1617.07</ele>
        <time>2015-03-19T09:29:30Z</time>
      </trkpt>
      <trkpt lat="45.53919" lon="6.91419">
        <ele>1617.56</ele>
        <time>2015-03-19T09:29:43Z</time>
      </trkpt>
      <trkpt lat="45.53911" lon="6.91432">
        <ele>1619</ele>
        <time>2015-03-19T09:29:57Z</time>
      </trkpt>
      <trkpt lat="45.53907" lon="6.91444">
        <ele>1620.44</ele>
        <time>2015-03-19T09:30:11Z</time>
      </trkpt>
      <trkpt lat="45.53907" lon="6.9145">
        <ele>1621.4</ele>
        <time>2015-03-19T09:30:32Z</time>
      </trkpt>
      <trkpt lat="45.53903" lon="6.91466">
        <ele>1623.32</ele>
        <time>2015-03-19T09:30:47Z</time>
      </trkpt>
      <trkpt lat="45.539" lon="6.91482">
        <ele>1623.8</ele>
        <time>2015-03-19T09:31:02Z</time>
      </trkpt>
      <trkpt lat="45.53898" lon="6.91495">
        <ele>1624.77</ele>
        <time>2015-03-19T09:31:17Z</time>
      </trkpt>
      <trkpt lat="45.53889" lon="6.91509">
        <ele>1626.21</ele>
        <time>2015-03-19T09:31:34Z</time>
      </trkpt>
      <trkpt lat="45.53876" lon="6.91521">
        <ele>1627.65</ele>
        <time>2015-03-19T09:31:52Z</time>
      </trkpt>
      <trkpt lat="45.53862" lon="6.91532">
        <ele>1629.09</ele>
        <time>2015-03-19T09:32:12Z</time>
      </trkpt>
      <trkpt lat="45.53854" lon="6.91544">
        <ele>1629.57</ele>
        <time>2015-03-19T09:32:29Z</time>
      </trkpt>
      <trkpt lat="45.53845" lon="6.91554">
        <ele>1631.01</ele>
        <time>2015-03-19T09:32:46Z</time>
      </trkpt>
      <trkpt lat="45.53836" lon="6.91565">
        <ele>1631.98</ele>
        <time>2015-03-19T09:33:00Z</time>
      </trkpt>
      <trkpt lat="45.53828" lon="6.91575">
        <ele>1632.46</ele>
        <time>2015-03-19T09:33:14Z</time>
      </trkpt>
      <trkpt lat="45.53822" lon="6.91586">
        <ele>1633.42</ele>
        <time>2015-03-19T09:33:29Z</time>
      </trkpt>
      <trkpt lat="45.53821" lon="6.916">
        <ele>1634.86</ele>
        <time>2015-03-19T09:33:43Z</time>
      </trkpt>
      <trkpt lat="45.5382" lon="6.91613">
        <ele>1635.82</ele>
        <time>2015-03-19T09:33:57Z</time>
      </trkpt>
      <trkpt lat="45.53817" lon="6.91627">
        <ele>1636.3</ele>
        <time>2015-03-19T09:34:10Z</time>
      </trkpt>
      <trkpt lat="45.53813" lon="6.9164">
        <ele>1637.74</ele>
        <time>2015-03-19T09:34:24Z</time>
      </trkpt>
      <trkpt lat="45.53804" lon="6.91652">
        <ele>1639.19</ele>
        <time>2015-03-19T09:34:40Z</time>
      </trkpt>
      <trkpt lat="45.53796" lon="6.9166">
        <ele>1640.15</ele>
        <time>2015-03-19T09:34:55Z</time>
      </trkpt>
      <trkpt lat="45.53787" lon="6.91669">
        <ele>1641.11</ele>
        <time>2015-03-19T09:35:09Z</time>
      </trkpt>
      <trkpt lat="45.53781" lon="6.91679">
        <ele>1641.59</ele>
        <time>2015-03-19T09:35:24Z</time>
      </trkpt>
      <trkpt lat="45.53771" lon="6.91687">
        <ele>1642.07</ele>
        <time>2015-03-19T09:38:03Z</time>
      </trkpt>
      <trkpt lat="45.53778" lon="6.91684">
        <ele>1641.11</ele>
        <time>2015-03-19T09:39:46Z</time>
      </trkpt>
      <trkpt lat="45.53788" lon="6.9168">
        <ele>1643.03</ele>
        <time>2015-03-19T09:39:58Z</time>
      </trkpt>
      <trkpt lat="45.53795" lon="6.91671">
        <ele>1643.51</ele>
        <time>2015-03-19T09:40:10Z</time>
      </trkpt>
      <trkpt lat="45.538" lon="6.91662">
        <ele>1643.99</ele>
        <time>2015-03-19T09:40:33Z</time>
      </trkpt>
      <trkpt lat="45.53809" lon="6.91654">
        <ele>1644.95</ele>
        <time>2015-03-19T09:40:45Z</time>
      </trkpt>
      <trkpt lat="45.53816" lon="6.91643">
        <ele>1645.91</ele>
        <time>2015-03-19T09:40:57Z</time>
      </trkpt>
      <trkpt lat="45.53824" lon="6.91631">
        <ele>1646.4</ele>
        <time>2015-03-19T09:41:10Z</time>
      </trkpt>
      <trkpt lat="45.53831" lon="6.9162">
        <ele>1647.36</ele>
        <time>2015-03-19T09:41:23Z</time>
      </trkpt>
      <trkpt lat="45.53838" lon="6.91611">
        <ele>1648.8</ele>
        <time>2015-03-19T09:41:36Z</time>
      </trkpt>
      <trkpt lat="45.53848" lon="6.916">
        <ele>1649.28</ele>
        <time>2015-03-19T09:41:49Z</time>
      </trkpt>
      <trkpt lat="45.53856" lon="6.91591">
        <ele>1650.24</ele>
        <time>2015-03-19T09:42:03Z</time>
      </trkpt>
      <trkpt lat="45.53862" lon="6.91578">
        <ele>1651.68</ele>
        <time>2015-03-19T09:42:18Z</time>
      </trkpt>
      <trkpt lat="45.53869" lon="6.91569">
        <ele>1653.12</ele>
        <time>2015-03-19T09:42:31Z</time>
      </trkpt>
      <trkpt lat="45.53884" lon="6.91566">
        <ele>1654.09</ele>
        <time>2015-03-19T09:42:49Z</time>
      </trkpt>
      <trkpt lat="45.53901" lon="6.91565">
        <ele>1655.53</ele>
        <time>2015-03-19T09:43:09Z</time>
      </trkpt>
      <trkpt lat="45.5391" lon="6.9156">
        <ele>1656.97</ele>
        <time>2015-03-19T09:43:25Z</time>
      </trkpt>
      <trkpt lat="45.53921" lon="6.91553">
        <ele>1658.89</ele>
        <time>2015-03-19T09:43:47Z</time>
      </trkpt>
      <trkpt lat="45.53932" lon="6.91547">
        <ele>1659.85</ele>
        <time>2015-03-19T09:44:03Z</time>
      </trkpt>
      <trkpt lat="45.53943" lon="6.91544">
        <ele>1661.3</ele>
        <time>2015-03-19T09:44:19Z</time>
      </trkpt>
      <trkpt lat="45.53954" lon="6.91543">
        <ele>1662.26</ele>
        <time>2015-03-19T09:44:35Z</time>
      </trkpt>
      <trkpt lat="45.53968" lon="6.91548">
        <ele>1664.18</ele>
        <time>2015-03-19T09:44:53Z</time>
      </trkpt>
      <trkpt lat="45.53978" lon="6.91552">
        <ele>1665.62</ele>
        <time>2015-03-19T09:45:26Z</time>
      </trkpt>
      <trkpt lat="45.53986" lon="6.91544">
        <ele>1666.1</ele>
        <time>2015-03-19T09:45:39Z</time>
      </trkpt>
      <trkpt lat="45.53993" lon="6.91535">
        <ele>1667.06</ele>
        <time>2015-03-19T09:45:52Z</time>
      </trkpt>
      <trkpt lat="45.53997" lon="6.91525">
        <ele>1668.02</ele>
        <time>2015-03-19T09:46:07Z</time>
      </trkpt>
      <trkpt lat="45.54004" lon="6.91515">
        <ele>1669.47</ele>
        <time>2015-03-19T09:46:21Z</time>
      </trkpt>
      <trkpt lat="45.54013" lon="6.91507">
        <ele>1670.43</ele>
        <time>2015-03-19T09:46:36Z</time>
      </trkpt>
      <trkpt lat="45.54025" lon="6.91505">
        <ele>1671.39</ele>
        <time>2015-03-19T09:46:50Z</time>
      </trkpt>
      <trkpt lat="45.54037" lon="6.915">
        <ele>1672.35</ele>
        <time>2015-03-19T09:47:37Z</time>
      </trkpt>
      <trkpt lat="45.54045" lon="6.91497">
        <ele>1673.31</ele>
        <time>2015-03-19T09:47:51Z</time>
      </trkpt>
      <trkpt lat="45.54053" lon="6.91493">
        <ele>1674.27</ele>
        <time>2015-03-19T09:48:14Z</time>
      </trkpt>
      <trkpt lat="45.5406" lon="6.91484">
        <ele>1675.23</ele>
        <time>2015-03-19T09:48:26Z</time>
      </trkpt>
      <trkpt lat="45.54066" lon="6.91471">
        <ele>1676.2</ele>
        <time>2015-03-19T09:48:38Z</time>
      </trkpt>
      <trkpt lat="45.54072" lon="6.91461">
        <ele>1676.2</ele>
        <time>2015-03-19T09:48:50Z</time>
      </trkpt>
      <trkpt lat="45.54079" lon="6.91453">
        <ele>1677.16</ele>
        <time>2015-03-19T09:49:03Z</time>
      </trkpt>
      <trkpt lat="45.54086" lon="6.91444">
        <ele>1678.12</ele>
        <time>2015-03-19T09:49:16Z</time>
      </trkpt>
      <trkpt lat="45.54095" lon="6.91436">
        <ele>1678.6</ele>
        <time>2015-03-19T09:49:29Z</time>
      </trkpt>
      <trkpt lat="45.54104" lon="6.91431">
        <ele>1679.56</ele>
        <time>2015-03-19T09:49:41Z</time>
      </trkpt>
      <trkpt lat="45.54112" lon="6.9142">
        <ele>1679.56</ele>
        <time>2015-03-19T09:49:54Z</time>
      </trkpt>
      <trkpt lat="45.54121" lon="6.91413">
        <ele>1680.04</ele>
        <time>2015-03-19T09:50:15Z</time>
      </trkpt>
      <trkpt lat="45.54129" lon="6.91406">
        <ele>1680.52</ele>
        <time>2015-03-19T09:50:27Z</time>
      </trkpt>
      <trkpt lat="45.54137" lon="6.91399">
        <ele>1681</ele>
        <time>2015-03-19T09:50:38Z</time>
      </trkpt>
      <trkpt lat="45.54146" lon="6.91392">
        <ele>1681</ele>
        <time>2015-03-19T09:50:49Z</time>
      </trkpt>
      <trkpt lat="45.54152" lon="6.91381">
        <ele>1681.48</ele>
        <time>2015-03-19T09:51:00Z</time>
      </trkpt>
      <trkpt lat="45.54159" lon="6.91375">
        <ele>1682.44</ele>
        <time>2015-03-19T09:51:12Z</time>
      </trkpt>
      <trkpt lat="45.54168" lon="6.91368">
        <ele>1682.44</ele>
        <time>2015-03-19T09:51:24Z</time>
      </trkpt>
      <trkpt lat="45.54178" lon="6.91374">
        <ele>1682.44</ele>
        <time>2015-03-19T09:51:38Z</time>
      </trkpt>
      <trkpt lat="45.5419" lon="6.91387">
        <ele>1683.41</ele>
        <time>2015-03-19T09:51:55Z</time>
      </trkpt>
      <trkpt lat="45.542" lon="6.91397">
        <ele>1683.89</ele>
        <time>2015-03-19T09:52:11Z</time>
      </trkpt>
      <trkpt lat="45.54208" lon="6.91399">
        <ele>1683.89</ele>
        <time>2015-03-19T09:52:27Z</time>
      </trkpt>
      <trkpt lat="45.54217" lon="6.914">
        <ele>1683.89</ele>
        <time>2015-03-19T09:52:37Z</time>
      </trkpt>
      <trkpt lat="45.54226" lon="6.91405">
        <ele>1684.37</ele>
        <time>2015-03-19T09:52:48Z</time>
      </trkpt>
      <trkpt lat="45.54235" lon="6.91406">
        <ele>1684.37</ele>
        <time>2015-03-19T09:53:00Z</time>
      </trkpt>
      <trkpt lat="45.54246" lon="6.91404">
        <ele>1684.37</ele>
        <time>2015-03-19T09:53:15Z</time>
      </trkpt>
      <trkpt lat="45.5426" lon="6.91404">
        <ele>1684.37</ele>
        <time>2015-03-19T09:53:32Z</time>
      </trkpt>
      <trkpt lat="45.54269" lon="6.91406">
        <ele>1683.89</ele>
        <time>2015-03-19T09:53:44Z</time>
      </trkpt>
      <trkpt lat="45.54279" lon="6.91412">
        <ele>1683.89</ele>
        <time>2015-03-19T09:53:55Z</time>
      </trkpt>
      <trkpt lat="45.5429" lon="6.91425">
        <ele>1683.89</ele>
        <time>2015-03-19T09:54:05Z</time>
      </trkpt>
      <trkpt lat="45.54296" lon="6.9144">
        <ele>1683.89</ele>
        <time>2015-03-19T09:54:16Z</time>
      </trkpt>
      <trkpt lat="45.54303" lon="6.9145">
        <ele>1683.89</ele>
        <time>2015-03-19T09:54:26Z</time>
      </trkpt>
      <trkpt lat="45.54312" lon="6.91458">
        <ele>1684.37</ele>
        <time>2015-03-19T09:54:38Z</time>
      </trkpt>
      <trkpt lat="45.5432" lon="6.91471">
        <ele>1684.85</ele>
        <time>2015-03-19T09:54:49Z</time>
      </trkpt>
      <trkpt lat="45.54324" lon="6.91487">
        <ele>1685.81</ele>
        <time>2015-03-19T09:55:04Z</time>
      </trkpt>
      <trkpt lat="45.54328" lon="6.91503">
        <ele>1686.29</ele>
        <time>2015-03-19T09:55:18Z</time>
      </trkpt>
      <trkpt lat="45.54336" lon="6.91512">
        <ele>1687.25</ele>
        <time>2015-03-19T09:55:35Z</time>
      </trkpt>
      <trkpt lat="45.54343" lon="6.91518">
        <ele>1688.21</ele>
        <time>2015-03-19T09:55:49Z</time>
      </trkpt>
      <trkpt lat="45.54351" lon="6.91516">
        <ele>1688.21</ele>
        <time>2015-03-19T09:56:02Z</time>
      </trkpt>
      <trkpt lat="45.54358" lon="6.91509">
        <ele>1689.17</ele>
        <time>2015-03-19T09:56:15Z</time>
      </trkpt>
      <trkpt lat="45.54367" lon="6.91506">
        <ele>1689.17</ele>
        <time>2015-03-19T09:56:26Z</time>
      </trkpt>
      <trkpt lat="45.54376" lon="6.91501">
        <ele>1689.65</ele>
        <time>2015-03-19T09:56:38Z</time>
      </trkpt>
      <trkpt lat="45.54385" lon="6.91496">
        <ele>1690.14</ele>
        <time>2015-03-19T09:56:50Z</time>
      </trkpt>
      <trkpt lat="45.54395" lon="6.91491">
        <ele>1690.62</ele>
        <time>2015-03-19T09:57:02Z</time>
      </trkpt>
      <trkpt lat="45.54403" lon="6.91485">
        <ele>1690.62</ele>
        <time>2015-03-19T09:57:13Z</time>
      </trkpt>
      <trkpt lat="45.54412" lon="6.9148">
        <ele>1691.1</ele>
        <time>2015-03-19T09:57:25Z</time>
      </trkpt>
      <trkpt lat="45.54422" lon="6.91475">
        <ele>1692.06</ele>
        <time>2015-03-19T09:57:38Z</time>
      </trkpt>
      <trkpt lat="45.5443" lon="6.91469">
        <ele>1692.54</ele>
        <time>2015-03-19T09:57:50Z</time>
      </trkpt>
      <trkpt lat="45.54438" lon="6.91465">
        <ele>1693.5</ele>
        <time>2015-03-19T09:58:04Z</time>
      </trkpt>
      <trkpt lat="45.54448" lon="6.91459">
        <ele>1693.5</ele>
        <time>2015-03-19T09:58:17Z</time>
      </trkpt>
      <trkpt lat="45.54457" lon="6.91456">
        <ele>1693.98</ele>
        <time>2015-03-19T09:58:32Z</time>
      </trkpt>
      <trkpt lat="45.54466" lon="6.91452">
        <ele>1694.94</ele>
        <time>2015-03-19T09:58:57Z</time>
      </trkpt>
      <trkpt lat="45.54476" lon="6.91446">
        <ele>1694.94</ele>
        <time>2015-03-19T09:59:11Z</time>
      </trkpt>
      <trkpt lat="45.54487" lon="6.91439">
        <ele>1695.9</ele>
        <time>2015-03-19T09:59:26Z</time>
      </trkpt>
      <trkpt lat="45.54495" lon="6.91429">
        <ele>1696.86</ele>
        <time>2015-03-19T09:59:42Z</time>
      </trkpt>
      <trkpt lat="45.54505" lon="6.91418">
        <ele>1697.34</ele>
        <time>2015-03-19T09:59:57Z</time>
      </trkpt>
      <trkpt lat="45.54513" lon="6.9141">
        <ele>1698.31</ele>
        <time>2015-03-19T10:00:11Z</time>
      </trkpt>
      <trkpt lat="45.54521" lon="6.91402">
        <ele>1698.79</ele>
        <time>2015-03-19T10:00:25Z</time>
      </trkpt>
      <trkpt lat="45.54529" lon="6.91392">
        <ele>1699.75</ele>
        <time>2015-03-19T10:00:38Z</time>
      </trkpt>
      <trkpt lat="45.54537" lon="6.91385">
        <ele>1700.23</ele>
        <time>2015-03-19T10:00:50Z</time>
      </trkpt>
      <trkpt lat="45.54546" lon="6.91382">
        <ele>1701.19</ele>
        <time>2015-03-19T10:01:02Z</time>
      </trkpt>
      <trkpt lat="45.54555" lon="6.91374">
        <ele>1702.15</ele>
        <time>2015-03-19T10:01:18Z</time>
      </trkpt>
      <trkpt lat="45.54563" lon="6.91367">
        <ele>1703.11</ele>
        <time>2015-03-19T10:01:37Z</time>
      </trkpt>
      <trkpt lat="45.54573" lon="6.9136">
        <ele>1704.07</ele>
        <time>2015-03-19T10:01:59Z</time>
      </trkpt>
      <trkpt lat="45.54582" lon="6.91353">
        <ele>1704.55</ele>
        <time>2015-03-19T10:02:13Z</time>
      </trkpt>
      <trkpt lat="45.54591" lon="6.91348">
        <ele>1705.52</ele>
        <time>2015-03-19T10:02:26Z</time>
      </trkpt>
      <trkpt lat="45.546" lon="6.91344">
        <ele>1706</ele>
        <time>2015-03-19T10:02:40Z</time>
      </trkpt>
      <trkpt lat="45.54608" lon="6.91338">
        <ele>1706</ele>
        <time>2015-03-19T10:02:53Z</time>
      </trkpt>
      <trkpt lat="45.54617" lon="6.91335">
        <ele>1706</ele>
        <time>2015-03-19T10:03:06Z</time>
      </trkpt>
      <trkpt lat="45.54627" lon="6.9133">
        <ele>1706</ele>
        <time>2015-03-19T10:03:20Z</time>
      </trkpt>
      <trkpt lat="45.54638" lon="6.91326">
        <ele>1706</ele>
        <time>2015-03-19T10:03:33Z</time>
      </trkpt>
      <trkpt lat="45.54647" lon="6.91325">
        <ele>1705.52</ele>
        <time>2015-03-19T10:07:36Z</time>
      </trkpt>
      <trkpt lat="45.54637" lon="6.91331">
        <ele>1705.04</ele>
        <time>2015-03-19T10:12:24Z</time>
      </trkpt>
      <trkpt lat="45.54633" lon="6.91326">
        <ele>1705.04</ele>
        <time>2015-03-19T10:13:31Z</time>
      </trkpt>
      <trkpt lat="45.54636" lon="6.91326">
        <ele>1705.04</ele>
        <time>2015-03-19T10:17:27Z</time>
      </trkpt>
      <trkpt lat="45.54646" lon="6.91325">
        <ele>1705.04</ele>
        <time>2015-03-19T10:17:47Z</time>
      </trkpt>
      <trkpt lat="45.54638" lon="6.91329">
        <ele>1704.55</ele>
        <time>2015-03-19T10:18:28Z</time>
      </trkpt>
      <trkpt lat="45.54626" lon="6.91335">
        <ele>1704.55</ele>
        <time>2015-03-19T10:18:50Z</time>
      </trkpt>
      <trkpt lat="45.54629" lon="6.91339">
        <ele>1705.04</ele>
        <time>2015-03-19T10:20:06Z</time>
      </trkpt>
      <trkpt lat="45.54631" lon="6.91349">
        <ele>1706.48</ele>
        <time>2015-03-19T10:20:20Z</time>
      </trkpt>
      <trkpt lat="45.54625" lon="6.91359">
        <ele>1707.44</ele>
        <time>2015-03-19T10:20:32Z</time>
      </trkpt>
      <trkpt lat="45.54617" lon="6.91368">
        <ele>1709.36</ele>
        <time>2015-03-19T10:20:45Z</time>
      </trkpt>
      <trkpt lat="45.54609" lon="6.91376">
        <ele>1710.32</ele>
        <time>2015-03-19T10:20:59Z</time>
      </trkpt>
      <trkpt lat="45.54599" lon="6.9138">
        <ele>1712.73</ele>
        <time>2015-03-19T10:21:14Z</time>
      </trkpt>
      <trkpt lat="45.54588" lon="6.91389">
        <ele>1714.17</ele>
        <time>2015-03-19T10:21:29Z</time>
      </trkpt>
      <trkpt lat="45.54587" lon="6.91398">
        <ele>1716.09</ele>
        <time>2015-03-19T10:21:44Z</time>
      </trkpt>
      <trkpt lat="45.54588" lon="6.91412">
        <ele>1717.53</ele>
        <time>2015-03-19T10:21:59Z</time>
      </trkpt>
      <trkpt lat="45.54587" lon="6.91426">
        <ele>1718.49</ele>
        <time>2015-03-19T10:22:21Z</time>
      </trkpt>
      <trkpt lat="45.54584" lon="6.9144">
        <ele>1719.46</ele>
        <time>2015-03-19T10:22:35Z</time>
      </trkpt>
      <trkpt lat="45.54579" lon="6.91451">
        <ele>1720.42</ele>
        <time>2015-03-19T10:22:48Z</time>
      </trkpt>
      <trkpt lat="45.54573" lon="6.91462">
        <ele>1722.82</ele>
        <time>2015-03-19T10:23:03Z</time>
      </trkpt>
      <trkpt lat="45.54566" lon="6.91475">
        <ele>1724.74</ele>
        <time>2015-03-19T10:23:23Z</time>
      </trkpt>
      <trkpt lat="45.54566" lon="6.91486">
        <ele>1727.15</ele>
        <time>2015-03-19T10:23:43Z</time>
      </trkpt>
      <trkpt lat="45.54565" lon="6.91499">
        <ele>1728.59</ele>
        <time>2015-03-19T10:24:00Z</time>
      </trkpt>
      <trkpt lat="45.5456" lon="6.91512">
        <ele>1730.51</ele>
        <time>2015-03-19T10:24:28Z</time>
      </trkpt>
      <trkpt lat="45.54553" lon="6.91523">
        <ele>1731.95</ele>
        <time>2015-03-19T10:24:44Z</time>
      </trkpt>
      <trkpt lat="45.54542" lon="6.91529">
        <ele>1734.36</ele>
        <time>2015-03-19T10:25:00Z</time>
      </trkpt>
      <trkpt lat="45.54534" lon="6.91539">
        <ele>1735.32</ele>
        <time>2015-03-19T10:25:16Z</time>
      </trkpt>
      <trkpt lat="45.54532" lon="6.91547">
        <ele>1737.24</ele>
        <time>2015-03-19T10:25:30Z</time>
      </trkpt>
      <trkpt lat="45.54533" lon="6.91558">
        <ele>1738.68</ele>
        <time>2015-03-19T10:25:43Z</time>
      </trkpt>
      <trkpt lat="45.54533" lon="6.9157">
        <ele>1740.12</ele>
        <time>2015-03-19T10:25:57Z</time>
      </trkpt>
      <trkpt lat="45.54534" lon="6.91584">
        <ele>1741.57</ele>
        <time>2015-03-19T10:26:11Z</time>
      </trkpt>
      <trkpt lat="45.54533" lon="6.91599">
        <ele>1742.53</ele>
        <time>2015-03-19T10:26:27Z</time>
      </trkpt>
      <trkpt lat="45.54527" lon="6.91611">
        <ele>1743.97</ele>
        <time>2015-03-19T10:26:42Z</time>
      </trkpt>
      <trkpt lat="45.54522" lon="6.91621">
        <ele>1745.41</ele>
        <time>2015-03-19T10:26:57Z</time>
      </trkpt>
      <trkpt lat="45.54523" lon="6.91635">
        <ele>1746.85</ele>
        <time>2015-03-19T10:27:12Z</time>
      </trkpt>
      <trkpt lat="45.5453" lon="6.91643">
        <ele>1747.81</ele>
        <time>2015-03-19T10:27:28Z</time>
      </trkpt>
      <trkpt lat="45.54539" lon="6.91645">
        <ele>1749.74</ele>
        <time>2015-03-19T10:27:42Z</time>
      </trkpt>
      <trkpt lat="45.54548" lon="6.91647">
        <ele>1750.7</ele>
        <time>2015-03-19T10:27:58Z</time>
      </trkpt>
      <trkpt lat="45.54558" lon="6.91649">
        <ele>1752.14</ele>
        <time>2015-03-19T10:28:16Z</time>
      </trkpt>
      <trkpt lat="45.54568" lon="6.91643">
        <ele>1754.06</ele>
        <time>2015-03-19T10:28:33Z</time>
      </trkpt>
      <trkpt lat="45.54576" lon="6.91633">
        <ele>1755.02</ele>
        <time>2015-03-19T10:28:50Z</time>
      </trkpt>
      <trkpt lat="45.54583" lon="6.91622">
        <ele>1756.47</ele>
        <time>2015-03-19T10:29:04Z</time>
      </trkpt>
      <trkpt lat="45.54589" lon="6.91613">
        <ele>1756.95</ele>
        <time>2015-03-19T10:29:16Z</time>
      </trkpt>
      <trkpt lat="45.54595" lon="6.916">
        <ele>1757.91</ele>
        <time>2015-03-19T10:29:32Z</time>
      </trkpt>
      <trkpt lat="45.54597" lon="6.91588">
        <ele>1759.35</ele>
        <time>2015-03-19T10:29:49Z</time>
      </trkpt>
      <trkpt lat="45.546" lon="6.91573">
        <ele>1760.31</ele>
        <time>2015-03-19T10:30:04Z</time>
      </trkpt>
      <trkpt lat="45.54605" lon="6.91562">
        <ele>1761.27</ele>
        <time>2015-03-19T10:30:17Z</time>
      </trkpt>
      <trkpt lat="45.54613" lon="6.91553">
        <ele>1761.75</ele>
        <time>2015-03-19T10:30:31Z</time>
      </trkpt>
      <trkpt lat="45.54622" lon="6.91548">
        <ele>1762.71</ele>
        <time>2015-03-19T10:30:46Z</time>
      </trkpt>
      <trkpt lat="45.54631" lon="6.91547">
        <ele>1764.16</ele>
        <time>2015-03-19T10:31:02Z</time>
      </trkpt>
      <trkpt lat="45.54641" lon="6.91552">
        <ele>1765.12</ele>
        <time>2015-03-19T10:31:20Z</time>
      </trkpt>
      <trkpt lat="45.54651" lon="6.91559">
        <ele>1766.08</ele>
        <time>2015-03-19T10:31:40Z</time>
      </trkpt>
      <trkpt lat="45.5466" lon="6.91562">
        <ele>1766.56</ele>
        <time>2015-03-19T10:31:54Z</time>
      </trkpt>
      <trkpt lat="45.54668" lon="6.91557">
        <ele>1768</ele>
        <time>2015-03-19T10:32:09Z</time>
      </trkpt>
      <trkpt lat="45.54674" lon="6.91548">
        <ele>1768.96</ele>
        <time>2015-03-19T10:32:23Z</time>
      </trkpt>
      <trkpt lat="45.54681" lon="6.91541">
        <ele>1769.92</ele>
        <time>2015-03-19T10:32:44Z</time>
      </trkpt>
      <trkpt lat="45.54689" lon="6.91533">
        <ele>1770.89</ele>
        <time>2015-03-19T10:32:58Z</time>
      </trkpt>
      <trkpt lat="45.54697" lon="6.91526">
        <ele>1772.33</ele>
        <time>2015-03-19T10:33:23Z</time>
      </trkpt>
      <trkpt lat="45.54706" lon="6.91519">
        <ele>1772.81</ele>
        <time>2015-03-19T10:33:45Z</time>
      </trkpt>
      <trkpt lat="45.54715" lon="6.91514">
        <ele>1774.25</ele>
        <time>2015-03-19T10:34:00Z</time>
      </trkpt>
      <trkpt lat="45.54723" lon="6.91507">
        <ele>1774.73</ele>
        <time>2015-03-19T10:34:13Z</time>
      </trkpt>
      <trkpt lat="45.5473" lon="6.91496">
        <ele>1775.69</ele>
        <time>2015-03-19T10:34:26Z</time>
      </trkpt>
      <trkpt lat="45.54736" lon="6.91488">
        <ele>1776.65</ele>
        <time>2015-03-19T10:34:39Z</time>
      </trkpt>
      <trkpt lat="45.54744" lon="6.91478">
        <ele>1777.61</ele>
        <time>2015-03-19T10:34:53Z</time>
      </trkpt>
      <trkpt lat="45.54751" lon="6.91472">
        <ele>1779.06</ele>
        <time>2015-03-19T10:35:07Z</time>
      </trkpt>
      <trkpt lat="45.5476" lon="6.91464">
        <ele>1780.02</ele>
        <time>2015-03-19T10:35:21Z</time>
      </trkpt>
      <trkpt lat="45.54767" lon="6.91457">
        <ele>1780.02</ele>
        <time>2015-03-19T10:35:35Z</time>
      </trkpt>
      <trkpt lat="45.54775" lon="6.9145">
        <ele>1781.46</ele>
        <time>2015-03-19T10:35:50Z</time>
      </trkpt>
      <trkpt lat="45.54782" lon="6.91441">
        <ele>1782.9</ele>
        <time>2015-03-19T10:36:05Z</time>
      </trkpt>
      <trkpt lat="45.54791" lon="6.91437">
        <ele>1783.86</ele>
        <time>2015-03-19T10:36:19Z</time>
      </trkpt>
      <trkpt lat="45.54801" lon="6.91432">
        <ele>1784.82</ele>
        <time>2015-03-19T10:36:33Z</time>
      </trkpt>
      <trkpt lat="45.54807" lon="6.91422">
        <ele>1786.27</ele>
        <time>2015-03-19T10:36:49Z</time>
      </trkpt>
      <trkpt lat="45.54815" lon="6.91411">
        <ele>1787.23</ele>
        <time>2015-03-19T10:37:05Z</time>
      </trkpt>
      <trkpt lat="45.54823" lon="6.91406">
        <ele>1788.19</ele>
        <time>2015-03-19T10:37:20Z</time>
      </trkpt>
      <trkpt lat="45.54832" lon="6.91402">
        <ele>1788.67</ele>
        <time>2015-03-19T10:37:46Z</time>
      </trkpt>
      <trkpt lat="45.54841" lon="6.91397">
        <ele>1789.15</ele>
        <time>2015-03-19T10:38:00Z</time>
      </trkpt>
      <trkpt lat="45.54849" lon="6.91391">
        <ele>1789.63</ele>
        <time>2015-03-19T10:38:14Z</time>
      </trkpt>
      <trkpt lat="45.54858" lon="6.91384">
        <ele>1790.59</ele>
        <time>2015-03-19T10:38:30Z</time>
      </trkpt>
      <trkpt lat="45.54866" lon="6.91376">
        <ele>1792.03</ele>
        <time>2015-03-19T10:38:46Z</time>
      </trkpt>
      <trkpt lat="45.54876" lon="6.91374">
        <ele>1793.48</ele>
        <time>2015-03-19T10:39:14Z</time>
      </trkpt>
      <trkpt lat="45.54887" lon="6.91372">
        <ele>1793.96</ele>
        <time>2015-03-19T10:39:30Z</time>
      </trkpt>
      <trkpt lat="45.54896" lon="6.91376">
        <ele>1794.92</ele>
        <time>2015-03-19T10:39:44Z</time>
      </trkpt>
      <trkpt lat="45.54905" lon="6.91372">
        <ele>1795.88</ele>
        <time>2015-03-19T10:40:02Z</time>
      </trkpt>
      <trkpt lat="45.54914" lon="6.91367">
        <ele>1797.32</ele>
        <time>2015-03-19T10:40:18Z</time>
      </trkpt>
      <trkpt lat="45.54923" lon="6.91364">
        <ele>1797.32</ele>
        <time>2015-03-19T10:40:32Z</time>
      </trkpt>
      <trkpt lat="45.54933" lon="6.91362">
        <ele>1798.28</ele>
        <time>2015-03-19T10:40:46Z</time>
      </trkpt>
      <trkpt lat="45.54942" lon="6.91358">
        <ele>1799.24</ele>
        <time>2015-03-19T10:41:01Z</time>
      </trkpt>
      <trkpt lat="45.54951" lon="6.91352">
        <ele>1801.17</ele>
        <time>2015-03-19T10:41:16Z</time>
      </trkpt>
      <trkpt lat="45.54962" lon="6.91352">
        <ele>1801.65</ele>
        <time>2015-03-19T10:41:30Z</time>
      </trkpt>
      <trkpt lat="45.54971" lon="6.9135">
        <ele>1803.09</ele>
        <time>2015-03-19T10:41:50Z</time>
      </trkpt>
      <trkpt lat="45.5498" lon="6.91352">
        <ele>1804.05</ele>
        <time>2015-03-19T10:42:05Z</time>
      </trkpt>
      <trkpt lat="45.54993" lon="6.9136">
        <ele>1804.53</ele>
        <time>2015-03-19T10:42:22Z</time>
      </trkpt>
      <trkpt lat="45.55006" lon="6.91369">
        <ele>1805.01</ele>
        <time>2015-03-19T10:42:39Z</time>
      </trkpt>
      <trkpt lat="45.55018" lon="6.91368">
        <ele>1805.49</ele>
        <time>2015-03-19T10:42:54Z</time>
      </trkpt>
      <trkpt lat="45.55029" lon="6.91367">
        <ele>1806.45</ele>
        <time>2015-03-19T10:43:17Z</time>
      </trkpt>
      <trkpt lat="45.55039" lon="6.91366">
        <ele>1806.94</ele>
        <time>2015-03-19T10:43:32Z</time>
      </trkpt>
      <trkpt lat="45.55048" lon="6.91366">
        <ele>1808.38</ele>
        <time>2015-03-19T10:43:46Z</time>
      </trkpt>
      <trkpt lat="45.55058" lon="6.91362">
        <ele>1808.86</ele>
        <time>2015-03-19T10:44:02Z</time>
      </trkpt>
      <trkpt lat="45.55069" lon="6.91357">
        <ele>1809.82</ele>
        <time>2015-03-19T10:44:18Z</time>
      </trkpt>
      <trkpt lat="45.5508" lon="6.9136">
        <ele>1810.3</ele>
        <time>2015-03-19T10:44:31Z</time>
      </trkpt>
      <trkpt lat="45.5509" lon="6.91366">
        <ele>1810.78</ele>
        <time>2015-03-19T10:44:45Z</time>
      </trkpt>
      <trkpt lat="45.55101" lon="6.91365">
        <ele>1811.26</ele>
        <time>2015-03-19T10:44:57Z</time>
      </trkpt>
      <trkpt lat="45.5511" lon="6.91365">
        <ele>1811.26</ele>
        <time>2015-03-19T10:45:08Z</time>
      </trkpt>
      <trkpt lat="45.5512" lon="6.91361">
        <ele>1811.74</ele>
        <time>2015-03-19T10:45:20Z</time>
      </trkpt>
      <trkpt lat="45.55128" lon="6.91357">
        <ele>1812.7</ele>
        <time>2015-03-19T10:45:35Z</time>
      </trkpt>
      <trkpt lat="45.55138" lon="6.91354">
        <ele>1814.15</ele>
        <time>2015-03-19T10:45:50Z</time>
      </trkpt>
      <trkpt lat="45.55148" lon="6.91354">
        <ele>1815.59</ele>
        <time>2015-03-19T10:46:04Z</time>
      </trkpt>
      <trkpt lat="45.55159" lon="6.91357">
        <ele>1816.55</ele>
        <time>2015-03-19T10:46:21Z</time>
      </trkpt>
      <trkpt lat="45.55171" lon="6.91359">
        <ele>1816.55</ele>
        <time>2015-03-19T10:47:03Z</time>
      </trkpt>
      <trkpt lat="45.55174" lon="6.91367">
        <ele>1816.55</ele>
        <time>2015-03-19T10:51:50Z</time>
      </trkpt>
      <trkpt lat="45.55183" lon="6.91373">
        <ele>1816.55</ele>
        <time>2015-03-19T10:52:06Z</time>
      </trkpt>
      <trkpt lat="45.55192" lon="6.91378">
        <ele>1817.51</ele>
        <time>2015-03-19T10:52:22Z</time>
      </trkpt>
      <trkpt lat="45.55201" lon="6.91385">
        <ele>1818.47</ele>
        <time>2015-03-19T10:52:39Z</time>
      </trkpt>
      <trkpt lat="45.55208" lon="6.91397">
        <ele>1819.43</ele>
        <time>2015-03-19T10:52:55Z</time>
      </trkpt>
      <trkpt lat="45.55217" lon="6.91406">
        <ele>1819.91</ele>
        <time>2015-03-19T10:53:11Z</time>
      </trkpt>
      <trkpt lat="45.55224" lon="6.91415">
        <ele>1820.87</ele>
        <time>2015-03-19T10:53:27Z</time>
      </trkpt>
      <trkpt lat="45.55232" lon="6.91425">
        <ele>1821.35</ele>
        <time>2015-03-19T10:53:49Z</time>
      </trkpt>
      <trkpt lat="45.5524" lon="6.91435">
        <ele>1823.28</ele>
        <time>2015-03-19T10:54:07Z</time>
      </trkpt>
      <trkpt lat="45.55248" lon="6.91441">
        <ele>1825.68</ele>
        <time>2015-03-19T10:54:42Z</time>
      </trkpt>
      <trkpt lat="45.5525" lon="6.91456">
        <ele>1826.16</ele>
        <time>2015-03-19T10:55:01Z</time>
      </trkpt>
      <trkpt lat="45.55252" lon="6.91471">
        <ele>1826.64</ele>
        <time>2015-03-19T10:55:21Z</time>
      </trkpt>
      <trkpt lat="45.55253" lon="6.91485">
        <ele>1827.6</ele>
        <time>2015-03-19T10:55:38Z</time>
      </trkpt>
      <trkpt lat="45.55253" lon="6.91499">
        <ele>1828.56</ele>
        <time>2015-03-19T10:55:53Z</time>
      </trkpt>
      <trkpt lat="45.5525" lon="6.91512">
        <ele>1830.49</ele>
        <time>2015-03-19T10:56:12Z</time>
      </trkpt>
      <trkpt lat="45.55246" lon="6.91527">
        <ele>1830.97</ele>
        <time>2015-03-19T10:56:48Z</time>
      </trkpt>
      <trkpt lat="45.55244" lon="6.91542">
        <ele>1831.93</ele>
        <time>2015-03-19T10:57:05Z</time>
      </trkpt>
      <trkpt lat="45.55243" lon="6.91556">
        <ele>1832.41</ele>
        <time>2015-03-19T10:57:21Z</time>
      </trkpt>
      <trkpt lat="45.55241" lon="6.91567">
        <ele>1832.89</ele>
        <time>2015-03-19T10:58:29Z</time>
      </trkpt>
      <trkpt lat="45.55245" lon="6.91574">
        <ele>1833.37</ele>
        <time>2015-03-19T11:00:49Z</time>
      </trkpt>
      <trkpt lat="45.55244" lon="6.91588">
        <ele>1833.37</ele>
        <time>2015-03-19T11:01:09Z</time>
      </trkpt>
      <trkpt lat="45.55244" lon="6.91603">
        <ele>1832.89</ele>
        <time>2015-03-19T11:01:25Z</time>
      </trkpt>
      <trkpt lat="45.55243" lon="6.91616">
        <ele>1832.89</ele>
        <time>2015-03-19T11:01:38Z</time>
      </trkpt>
      <trkpt lat="45.55245" lon="6.9163">
        <ele>1832.89</ele>
        <time>2015-03-19T11:01:50Z</time>
      </trkpt>
      <trkpt lat="45.55244" lon="6.91643">
        <ele>1831.45</ele>
        <time>2015-03-19T11:02:01Z</time>
      </trkpt>
      <trkpt lat="45.55244" lon="6.91657">
        <ele>1830.49</ele>
        <time>2015-03-19T11:02:12Z</time>
      </trkpt>
      <trkpt lat="45.55244" lon="6.91673">
        <ele>1830.01</ele>
        <time>2015-03-19T11:02:24Z</time>
      </trkpt>
      <trkpt lat="45.55243" lon="6.91687">
        <ele>1829.53</ele>
        <time>2015-03-19T11:02:36Z</time>
      </trkpt>
      <trkpt lat="45.55245" lon="6.91702">
        <ele>1828.56</ele>
        <time>2015-03-19T11:02:49Z</time>
      </trkpt>
      <trkpt lat="45.5525" lon="6.91714">
        <ele>1828.56</ele>
        <time>2015-03-19T11:03:03Z</time>
      </trkpt>
      <trkpt lat="45.55256" lon="6.91727">
        <ele>1828.56</ele>
        <time>2015-03-19T11:03:18Z</time>
      </trkpt>
      <trkpt lat="45.55262" lon="6.9174">
        <ele>1828.56</ele>
        <time>2015-03-19T11:03:31Z</time>
      </trkpt>
      <trkpt lat="45.5527" lon="6.91751">
        <ele>1828.56</ele>
        <time>2015-03-19T11:03:44Z</time>
      </trkpt>
      <trkpt lat="45.55279" lon="6.91763">
        <ele>1829.53</ele>
        <time>2015-03-19T11:03:59Z</time>
      </trkpt>
      <trkpt lat="45.55287" lon="6.91773">
        <ele>1831.45</ele>
        <time>2015-03-19T11:04:16Z</time>
      </trkpt>
      <trkpt lat="45.55293" lon="6.91785">
        <ele>1834.33</ele>
        <time>2015-03-19T11:04:44Z</time>
      </trkpt>
      <trkpt lat="45.55304" lon="6.91798">
        <ele>1838.18</ele>
        <time>2015-03-19T11:05:19Z</time>
      </trkpt>
      <trkpt lat="45.55311" lon="6.9181">
        <ele>1841.54</ele>
        <time>2015-03-19T11:06:00Z</time>
      </trkpt>
      <trkpt lat="45.55319" lon="6.91833">
        <ele>1846.35</ele>
        <time>2015-03-19T11:06:52Z</time>
      </trkpt>
      <trkpt lat="45.55323" lon="6.91856">
        <ele>1852.6</ele>
        <time>2015-03-19T11:08:01Z</time>
      </trkpt>
      <trkpt lat="45.55324" lon="6.9189">
        <ele>1862.21</ele>
        <time>2015-03-19T11:10:12Z</time>
      </trkpt>
      <trkpt lat="45.55322" lon="6.91903">
        <ele>1863.65</ele>
        <time>2015-03-19T11:10:32Z</time>
      </trkpt>
      <trkpt lat="45.55328" lon="6.91917">
        <ele>1865.09</ele>
        <time>2015-03-19T11:11:09Z</time>
      </trkpt>
      <trkpt lat="45.55334" lon="6.9193">
        <ele>1866.54</ele>
        <time>2015-03-19T11:11:28Z</time>
      </trkpt>
      <trkpt lat="45.55335" lon="6.91944">
        <ele>1868.94</ele>
        <time>2015-03-19T11:11:47Z</time>
      </trkpt>
      <trkpt lat="45.55331" lon="6.9196">
        <ele>1870.86</ele>
        <time>2015-03-19T11:12:06Z</time>
      </trkpt>
      <trkpt lat="45.55332" lon="6.9197">
        <ele>1872.3</ele>
        <time>2015-03-19T11:13:23Z</time>
      </trkpt>
      <trkpt lat="45.55334" lon="6.91984">
        <ele>1873.27</ele>
        <time>2015-03-19T11:13:37Z</time>
      </trkpt>
      <trkpt lat="45.55334" lon="6.91998">
        <ele>1874.71</ele>
        <time>2015-03-19T11:14:04Z</time>
      </trkpt>
      <trkpt lat="45.55335" lon="6.92013">
        <ele>1874.71</ele>
        <time>2015-03-19T11:14:21Z</time>
      </trkpt>
      <trkpt lat="45.55341" lon="6.92023">
        <ele>1874.71</ele>
        <time>2015-03-19T11:14:32Z</time>
      </trkpt>
      <trkpt lat="45.55346" lon="6.92034">
        <ele>1874.71</ele>
        <time>2015-03-19T11:14:45Z</time>
      </trkpt>
      <trkpt lat="45.5535" lon="6.92048">
        <ele>1874.71</ele>
        <time>2015-03-19T11:14:58Z</time>
      </trkpt>
      <trkpt lat="45.55354" lon="6.92062">
        <ele>1874.71</ele>
        <time>2015-03-19T11:15:11Z</time>
      </trkpt>
      <trkpt lat="45.55359" lon="6.92073">
        <ele>1874.71</ele>
        <time>2015-03-19T11:15:27Z</time>
      </trkpt>
      <trkpt lat="45.55367" lon="6.92084">
        <ele>1875.19</ele>
        <time>2015-03-19T11:15:44Z</time>
      </trkpt>
      <trkpt lat="45.55374" lon="6.92092">
        <ele>1875.19</ele>
        <time>2015-03-19T11:15:57Z</time>
      </trkpt>
      <trkpt lat="45.55381" lon="6.921">
        <ele>1875.19</ele>
        <time>2015-03-19T11:16:10Z</time>
      </trkpt>
      <trkpt lat="45.5539" lon="6.92107">
        <ele>1872.79</ele>
        <time>2015-03-19T11:16:22Z</time>
      </trkpt>
      <trkpt lat="45.55399" lon="6.92116">
        <ele>1871.82</ele>
        <time>2015-03-19T11:16:33Z</time>
      </trkpt>
      <trkpt lat="45.55408" lon="6.92124">
        <ele>1871.34</ele>
        <time>2015-03-19T11:16:43Z</time>
      </trkpt>
      <trkpt lat="45.55416" lon="6.92132">
        <ele>1871.34</ele>
        <time>2015-03-19T11:16:54Z</time>
      </trkpt>
      <trkpt lat="45.55422" lon="6.92141">
        <ele>1871.34</ele>
        <time>2015-03-19T11:17:05Z</time>
      </trkpt>
      <trkpt lat="45.5543" lon="6.9215">
        <ele>1870.86</ele>
        <time>2015-03-19T11:17:16Z</time>
      </trkpt>
      <trkpt lat="45.55439" lon="6.92156">
        <ele>1871.34</ele>
        <time>2015-03-19T11:17:28Z</time>
      </trkpt>
      <trkpt lat="45.55447" lon="6.92162">
        <ele>1871.34</ele>
        <time>2015-03-19T11:17:39Z</time>
      </trkpt>
      <trkpt lat="45.55456" lon="6.92165">
        <ele>1871.34</ele>
        <time>2015-03-19T11:17:54Z</time>
      </trkpt>
      <trkpt lat="45.55464" lon="6.92171">
        <ele>1872.3</ele>
        <time>2015-03-19T11:18:18Z</time>
      </trkpt>
      <trkpt lat="45.55469" lon="6.92181">
        <ele>1872.79</ele>
        <time>2015-03-19T11:18:29Z</time>
      </trkpt>
      <trkpt lat="45.55467" lon="6.92185">
        <ele>1873.27</ele>
        <time>2015-03-19T11:21:11Z</time>
      </trkpt>
      <trkpt lat="45.55467" lon="6.92185">
        <ele>1909.8</ele>
        <time>2015-03-19T11:52:49Z</time>
      </trkpt>
      <trkpt lat="45.55467" lon="6.92182">
        <ele>1870.86</ele>
        <time>2015-03-19T11:56:04Z</time>
      </trkpt>
      <trkpt lat="45.5547" lon="6.92192">
        <ele>1870.86</ele>
        <time>2015-03-19T11:57:55Z</time>
      </trkpt>
      <trkpt lat="45.55469" lon="6.92206">
        <ele>1870.86</ele>
        <time>2015-03-19T11:58:08Z</time>
      </trkpt>
      <trkpt lat="45.55473" lon="6.92222">
        <ele>1870.38</ele>
        <time>2015-03-19T11:58:26Z</time>
      </trkpt>
      <trkpt lat="45.55468" lon="6.92237">
        <ele>1870.38</ele>
        <time>2015-03-19T11:58:50Z</time>
      </trkpt>
      <trkpt lat="45.55463" lon="6.92249">
        <ele>1870.38</ele>
        <time>2015-03-19T11:59:01Z</time>
      </trkpt>
      <trkpt lat="45.55456" lon="6.92261">
        <ele>1870.38</ele>
        <time>2015-03-19T11:59:12Z</time>
      </trkpt>
      <trkpt lat="45.55449" lon="6.92273">
        <ele>1871.34</ele>
        <time>2015-03-19T11:59:26Z</time>
      </trkpt>
      <trkpt lat="45.55444" lon="6.92293">
        <ele>1873.75</ele>
        <time>2015-03-19T11:59:46Z</time>
      </trkpt>
      <trkpt lat="45.55436" lon="6.92306">
        <ele>1875.19</ele>
        <time>2015-03-19T12:00:00Z</time>
      </trkpt>
      <trkpt lat="45.55428" lon="6.92319">
        <ele>1875.67</ele>
        <time>2015-03-19T12:00:13Z</time>
      </trkpt>
      <trkpt lat="45.5542" lon="6.9233">
        <ele>1877.11</ele>
        <time>2015-03-19T12:00:28Z</time>
      </trkpt>
      <trkpt lat="45.55408" lon="6.92323">
        <ele>1879.51</ele>
        <time>2015-03-19T12:00:57Z</time>
      </trkpt>
      <trkpt lat="45.55398" lon="6.92331">
        <ele>1880.96</ele>
        <time>2015-03-19T12:01:16Z</time>
      </trkpt>
      <trkpt lat="45.55392" lon="6.92342">
        <ele>1882.4</ele>
        <time>2015-03-19T12:01:31Z</time>
      </trkpt>
      <trkpt lat="45.55384" lon="6.92351">
        <ele>1884.32</ele>
        <time>2015-03-19T12:01:50Z</time>
      </trkpt>
      <trkpt lat="45.55364" lon="6.92359">
        <ele>1889.61</ele>
        <time>2015-03-19T12:02:34Z</time>
      </trkpt>
      <trkpt lat="45.55339" lon="6.92343">
        <ele>1895.38</ele>
        <time>2015-03-19T12:04:13Z</time>
      </trkpt>
      <trkpt lat="45.5535" lon="6.92356">
        <ele>1898.74</ele>
        <time>2015-03-19T12:05:09Z</time>
      </trkpt>
      <trkpt lat="45.554" lon="6.92406">
        <ele>1912.2</ele>
        <time>2015-03-19T12:07:05Z</time>
      </trkpt>
      <trkpt lat="45.55417" lon="6.92404">
        <ele>1914.12</ele>
        <time>2015-03-19T12:07:35Z</time>
      </trkpt>
      <trkpt lat="45.55439" lon="6.92422">
        <ele>1918.93</ele>
        <time>2015-03-19T12:08:30Z</time>
      </trkpt>
      <trkpt lat="45.55438" lon="6.92448">
        <ele>1921.81</ele>
        <time>2015-03-19T12:09:09Z</time>
      </trkpt>
      <trkpt lat="45.55437" lon="6.92481">
        <ele>1926.62</ele>
        <time>2015-03-19T12:09:51Z</time>
      </trkpt>
      <trkpt lat="45.55446" lon="6.92518">
        <ele>1935.75</ele>
        <time>2015-03-19T12:11:27Z</time>
      </trkpt>
      <trkpt lat="45.55427" lon="6.92541">
        <ele>1939.6</ele>
        <time>2015-03-19T12:12:05Z</time>
      </trkpt>
      <trkpt lat="45.55404" lon="6.92523">
        <ele>1944.88</ele>
        <time>2015-03-19T12:12:57Z</time>
      </trkpt>
      <trkpt lat="45.55384" lon="6.92523">
        <ele>1951.13</ele>
        <time>2015-03-19T12:14:09Z</time>
      </trkpt>
      <trkpt lat="45.55356" lon="6.92541">
        <ele>1957.86</ele>
        <time>2015-03-19T12:15:08Z</time>
      </trkpt>
      <trkpt lat="45.55349" lon="6.92539">
        <ele>1965.07</ele>
        <time>2015-03-19T12:17:06Z</time>
      </trkpt>
      <trkpt lat="45.5536" lon="6.92551">
        <ele>1968.44</ele>
        <time>2015-03-19T12:17:36Z</time>
      </trkpt>
      <trkpt lat="45.55371" lon="6.9256">
        <ele>1970.84</ele>
        <time>2015-03-19T12:18:16Z</time>
      </trkpt>
      <trkpt lat="45.55379" lon="6.92578">
        <ele>1972.76</ele>
        <time>2015-03-19T12:18:39Z</time>
      </trkpt>
      <trkpt lat="45.5539" lon="6.92589">
        <ele>1976.13</ele>
        <time>2015-03-19T12:19:12Z</time>
      </trkpt>
      <trkpt lat="45.55406" lon="6.92614">
        <ele>1982.38</ele>
        <time>2015-03-19T12:19:58Z</time>
      </trkpt>
      <trkpt lat="45.55419" lon="6.92634">
        <ele>1985.26</ele>
        <time>2015-03-19T12:20:37Z</time>
      </trkpt>
      <trkpt lat="45.55422" lon="6.92656">
        <ele>1989.59</ele>
        <time>2015-03-19T12:21:28Z</time>
      </trkpt>
      <trkpt lat="45.55426" lon="6.92681">
        <ele>1993.43</ele>
        <time>2015-03-19T12:22:13Z</time>
      </trkpt>
      <trkpt lat="45.55422" lon="6.92703">
        <ele>1999.2</ele>
        <time>2015-03-19T12:24:49Z</time>
      </trkpt>
      <trkpt lat="45.55429" lon="6.92779">
        <ele>2013.14</ele>
        <time>2015-03-19T12:26:40Z</time>
      </trkpt>
      <trkpt lat="45.55427" lon="6.92879">
        <ele>2029.96</ele>
        <time>2015-03-19T12:29:31Z</time>
      </trkpt>
      <trkpt lat="45.55415" lon="6.92914">
        <ele>2035.73</ele>
        <time>2015-03-19T12:30:43Z</time>
      </trkpt>
      <trkpt lat="45.55402" lon="6.92971">
        <ele>2046.78</ele>
        <time>2015-03-19T12:34:22Z</time>
      </trkpt>
      <trkpt lat="45.55402" lon="6.92985">
        <ele>2049.67</ele>
        <time>2015-03-19T12:34:55Z</time>
      </trkpt>
      <trkpt lat="45.55379" lon="6.92983">
        <ele>2055.44</ele>
        <time>2015-03-19T12:37:13Z</time>
      </trkpt>
      <trkpt lat="45.55327" lon="6.92903">
        <ele>2072.26</ele>
        <time>2015-03-19T12:46:17Z</time>
      </trkpt>
      <trkpt lat="45.55314" lon="6.92882">
        <ele>2069.38</ele>
        <time>2015-03-19T12:47:56Z</time>
      </trkpt>
      <trkpt lat="45.55309" lon="6.92871">
        <ele>2066.97</ele>
        <time>2015-03-19T12:48:09Z</time>
      </trkpt>
      <trkpt lat="45.55305" lon="6.92855">
        <ele>2065.05</ele>
        <time>2015-03-19T12:48:25Z</time>
      </trkpt>
      <trkpt lat="45.55302" lon="6.92827">
        <ele>2063.61</ele>
        <time>2015-03-19T12:48:44Z</time>
      </trkpt>
      <trkpt lat="45.553" lon="6.92805">
        <ele>2060.72</ele>
        <time>2015-03-19T12:49:02Z</time>
      </trkpt>
      <trkpt lat="45.55297" lon="6.92781">
        <ele>2057.36</ele>
        <time>2015-03-19T12:49:22Z</time>
      </trkpt>
      <trkpt lat="45.55285" lon="6.9276">
        <ele>2052.55</ele>
        <time>2015-03-19T12:49:48Z</time>
      </trkpt>
      <trkpt lat="45.55272" lon="6.92746">
        <ele>2048.23</ele>
        <time>2015-03-19T12:50:10Z</time>
      </trkpt>
      <trkpt lat="45.55261" lon="6.92729">
        <ele>2045.34</ele>
        <time>2015-03-19T12:51:32Z</time>
      </trkpt>
      <trkpt lat="45.55252" lon="6.92724">
        <ele>2044.38</ele>
        <time>2015-03-19T12:51:46Z</time>
      </trkpt>
      <trkpt lat="45.55244" lon="6.92718">
        <ele>2042.46</ele>
        <time>2015-03-19T12:51:58Z</time>
      </trkpt>
      <trkpt lat="45.55237" lon="6.92708">
        <ele>2041.02</ele>
        <time>2015-03-19T12:52:09Z</time>
      </trkpt>
      <trkpt lat="45.55229" lon="6.92693">
        <ele>2037.65</ele>
        <time>2015-03-19T12:52:25Z</time>
      </trkpt>
      <trkpt lat="45.55218" lon="6.92668">
        <ele>2033.33</ele>
        <time>2015-03-19T12:52:54Z</time>
      </trkpt>
      <trkpt lat="45.5521" lon="6.92642">
        <ele>2029.48</ele>
        <time>2015-03-19T12:53:19Z</time>
      </trkpt>
      <trkpt lat="45.55204" lon="6.92627">
        <ele>2027.56</ele>
        <time>2015-03-19T12:53:33Z</time>
      </trkpt>
      <trkpt lat="45.55201" lon="6.92609">
        <ele>2025.64</ele>
        <time>2015-03-19T12:53:44Z</time>
      </trkpt>
      <trkpt lat="45.55196" lon="6.92591">
        <ele>2023.71</ele>
        <time>2015-03-19T12:53:56Z</time>
      </trkpt>
      <trkpt lat="45.55192" lon="6.92578">
        <ele>2021.31</ele>
        <time>2015-03-19T12:54:09Z</time>
      </trkpt>
      <trkpt lat="45.55188" lon="6.92566">
        <ele>2019.39</ele>
        <time>2015-03-19T12:54:20Z</time>
      </trkpt>
      <trkpt lat="45.55181" lon="6.92553">
        <ele>2017.94</ele>
        <time>2015-03-19T12:54:31Z</time>
      </trkpt>
      <trkpt lat="45.55173" lon="6.92539">
        <ele>2016.02</ele>
        <time>2015-03-19T12:54:42Z</time>
      </trkpt>
      <trkpt lat="45.55168" lon="6.92532">
        <ele>2013.62</ele>
        <time>2015-03-19T12:55:36Z</time>
      </trkpt>
      <trkpt lat="45.55162" lon="6.92518">
        <ele>2010.73</ele>
        <time>2015-03-19T12:55:47Z</time>
      </trkpt>
      <trkpt lat="45.55156" lon="6.92504">
        <ele>2008.33</ele>
        <time>2015-03-19T12:55:57Z</time>
      </trkpt>
      <trkpt lat="45.5515" lon="6.92491">
        <ele>2005.93</ele>
        <time>2015-03-19T12:56:07Z</time>
      </trkpt>
      <trkpt lat="45.55144" lon="6.92479">
        <ele>2004.01</ele>
        <time>2015-03-19T12:56:16Z</time>
      </trkpt>
      <trkpt lat="45.55137" lon="6.92469">
        <ele>2002.08</ele>
        <time>2015-03-19T12:56:26Z</time>
      </trkpt>
      <trkpt lat="45.55129" lon="6.92455">
        <ele>1999.68</ele>
        <time>2015-03-19T12:56:39Z</time>
      </trkpt>
      <trkpt lat="45.55116" lon="6.92443">
        <ele>1995.35</ele>
        <time>2015-03-19T12:56:56Z</time>
      </trkpt>
      <trkpt lat="45.55106" lon="6.92436">
        <ele>1993.43</ele>
        <time>2015-03-19T12:57:08Z</time>
      </trkpt>
      <trkpt lat="45.55087" lon="6.92421">
        <ele>1987.66</ele>
        <time>2015-03-19T12:57:34Z</time>
      </trkpt>
      <trkpt lat="45.55065" lon="6.92406">
        <ele>1981.9</ele>
        <time>2015-03-19T12:58:02Z</time>
      </trkpt>
      <trkpt lat="45.55055" lon="6.92387">
        <ele>1979.01</ele>
        <time>2015-03-19T12:58:17Z</time>
      </trkpt>
      <trkpt lat="45.55045" lon="6.92362">
        <ele>1975.65</ele>
        <time>2015-03-19T12:58:39Z</time>
      </trkpt>
      <trkpt lat="45.55039" lon="6.92344">
        <ele>1973.24</ele>
        <time>2015-03-19T12:58:52Z</time>
      </trkpt>
      <trkpt lat="45.55038" lon="6.92326">
        <ele>1971.32</ele>
        <time>2015-03-19T12:59:05Z</time>
      </trkpt>
      <trkpt lat="45.55039" lon="6.92306">
        <ele>1970.36</ele>
        <time>2015-03-19T12:59:18Z</time>
      </trkpt>
      <trkpt lat="45.55036" lon="6.92288">
        <ele>1969.4</ele>
        <time>2015-03-19T12:59:31Z</time>
      </trkpt>
      <trkpt lat="45.55031" lon="6.92272">
        <ele>1968.44</ele>
        <time>2015-03-19T12:59:44Z</time>
      </trkpt>
      <trkpt lat="45.55026" lon="6.92258">
        <ele>1967.48</ele>
        <time>2015-03-19T12:59:56Z</time>
      </trkpt>
      <trkpt lat="45.55021" lon="6.92244">
        <ele>1966.51</ele>
        <time>2015-03-19T13:00:07Z</time>
      </trkpt>
      <trkpt lat="45.55013" lon="6.92232">
        <ele>1965.07</ele>
        <time>2015-03-19T13:00:18Z</time>
      </trkpt>
      <trkpt lat="45.55008" lon="6.92214">
        <ele>1964.11</ele>
        <time>2015-03-19T13:00:33Z</time>
      </trkpt>
      <trkpt lat="45.55028" lon="6.9223">
        <ele>1961.71</ele>
        <time>2015-03-19T13:04:58Z</time>
      </trkpt>
      <trkpt lat="45.5504" lon="6.92239">
        <ele>1959.3</ele>
        <time>2015-03-19T13:05:10Z</time>
      </trkpt>
      <trkpt lat="45.55051" lon="6.92249">
        <ele>1956.9</ele>
        <time>2015-03-19T13:05:21Z</time>
      </trkpt>
      <trkpt lat="45.5506" lon="6.92265">
        <ele>1954.02</ele>
        <time>2015-03-19T13:05:39Z</time>
      </trkpt>
      <trkpt lat="45.55068" lon="6.92279">
        <ele>1950.17</ele>
        <time>2015-03-19T13:06:09Z</time>
      </trkpt>
      <trkpt lat="45.55086" lon="6.92279">
        <ele>1947.29</ele>
        <time>2015-03-19T13:06:21Z</time>
      </trkpt>
      <trkpt lat="45.55095" lon="6.92272">
        <ele>1945.36</ele>
        <time>2015-03-19T13:06:31Z</time>
      </trkpt>
      <trkpt lat="45.55108" lon="6.92262">
        <ele>1943.44</ele>
        <time>2015-03-19T13:06:45Z</time>
      </trkpt>
      <trkpt lat="45.55121" lon="6.92258">
        <ele>1941.04</ele>
        <time>2015-03-19T13:06:57Z</time>
      </trkpt>
      <trkpt lat="45.55134" lon="6.92259">
        <ele>1939.12</ele>
        <time>2015-03-19T13:07:06Z</time>
      </trkpt>
      <trkpt lat="45.55146" lon="6.92259">
        <ele>1938.16</ele>
        <time>2015-03-19T13:07:18Z</time>
      </trkpt>
      <trkpt lat="45.55155" lon="6.92242">
        <ele>1935.75</ele>
        <time>2015-03-19T13:07:32Z</time>
      </trkpt>
      <trkpt lat="45.55139" lon="6.9223">
        <ele>1933.83</ele>
        <time>2015-03-19T13:08:27Z</time>
      </trkpt>
      <trkpt lat="45.55124" lon="6.92221">
        <ele>1930.95</ele>
        <time>2015-03-19T13:08:44Z</time>
      </trkpt>
      <trkpt lat="45.55117" lon="6.92205">
        <ele>1928.06</ele>
        <time>2015-03-19T13:08:58Z</time>
      </trkpt>
      <trkpt lat="45.55114" lon="6.92188">
        <ele>1926.14</ele>
        <time>2015-03-19T13:09:08Z</time>
      </trkpt>
      <trkpt lat="45.55109" lon="6.92176">
        <ele>1925.66</ele>
        <time>2015-03-19T13:09:18Z</time>
      </trkpt>
      <trkpt lat="45.55103" lon="6.92165">
        <ele>1925.18</ele>
        <time>2015-03-19T13:09:28Z</time>
      </trkpt>
      <trkpt lat="45.55097" lon="6.92153">
        <ele>1924.7</ele>
        <time>2015-03-19T13:09:38Z</time>
      </trkpt>
      <trkpt lat="45.55093" lon="6.9214">
        <ele>1923.74</ele>
        <time>2015-03-19T13:09:48Z</time>
      </trkpt>
      <trkpt lat="45.55089" lon="6.92125">
        <ele>1922.29</ele>
        <time>2015-03-19T13:09:59Z</time>
      </trkpt>
      <trkpt lat="45.55083" lon="6.92105">
        <ele>1921.33</ele>
        <time>2015-03-19T13:10:30Z</time>
      </trkpt>
      <trkpt lat="45.55079" lon="6.92091">
        <ele>1920.37</ele>
        <time>2015-03-19T13:10:42Z</time>
      </trkpt>
      <trkpt lat="45.55074" lon="6.92078">
        <ele>1918.93</ele>
        <time>2015-03-19T13:10:53Z</time>
      </trkpt>
      <trkpt lat="45.55067" lon="6.92067">
        <ele>1917.97</ele>
        <time>2015-03-19T13:11:03Z</time>
      </trkpt>
      <trkpt lat="45.55062" lon="6.92057">
        <ele>1917.01</ele>
        <time>2015-03-19T13:11:13Z</time>
      </trkpt>
      <trkpt lat="45.55057" lon="6.92048">
        <ele>1917.01</ele>
        <time>2015-03-19T13:11:24Z</time>
      </trkpt>
      <trkpt lat="45.55051" lon="6.92035">
        <ele>1916.04</ele>
        <time>2015-03-19T13:11:35Z</time>
      </trkpt>
      <trkpt lat="45.55042" lon="6.92022">
        <ele>1915.56</ele>
        <time>2015-03-19T13:11:46Z</time>
      </trkpt>
      <trkpt lat="45.55035" lon="6.9201">
        <ele>1914.12</ele>
        <time>2015-03-19T13:11:58Z</time>
      </trkpt>
      <trkpt lat="45.55021" lon="6.91991">
        <ele>1913.64</ele>
        <time>2015-03-19T13:12:18Z</time>
      </trkpt>
      <trkpt lat="45.55011" lon="6.91974">
        <ele>1912.68</ele>
        <time>2015-03-19T13:12:34Z</time>
      </trkpt>
      <trkpt lat="45.54999" lon="6.9195">
        <ele>1911.24</ele>
        <time>2015-03-19T13:12:57Z</time>
      </trkpt>
      <trkpt lat="45.54993" lon="6.91934">
        <ele>1910.76</ele>
        <time>2015-03-19T13:13:07Z</time>
      </trkpt>
      <trkpt lat="45.54985" lon="6.91923">
        <ele>1910.28</ele>
        <time>2015-03-19T13:13:20Z</time>
      </trkpt>
      <trkpt lat="45.54976" lon="6.91911">
        <ele>1908.83</ele>
        <time>2015-03-19T13:13:33Z</time>
      </trkpt>
      <trkpt lat="45.54967" lon="6.91899">
        <ele>1908.83</ele>
        <time>2015-03-19T13:13:44Z</time>
      </trkpt>
      <trkpt lat="45.54959" lon="6.91888">
        <ele>1907.87</ele>
        <time>2015-03-19T13:13:58Z</time>
      </trkpt>
      <trkpt lat="45.54952" lon="6.91879">
        <ele>1906.43</ele>
        <time>2015-03-19T13:14:09Z</time>
      </trkpt>
      <trkpt lat="45.54945" lon="6.91869">
        <ele>1905.47</ele>
        <time>2015-03-19T13:14:20Z</time>
      </trkpt>
      <trkpt lat="45.5494" lon="6.91858">
        <ele>1904.03</ele>
        <time>2015-03-19T13:14:30Z</time>
      </trkpt>
      <trkpt lat="45.54935" lon="6.91846">
        <ele>1902.11</ele>
        <time>2015-03-19T13:14:40Z</time>
      </trkpt>
      <trkpt lat="45.5493" lon="6.91832">
        <ele>1900.66</ele>
        <time>2015-03-19T13:14:50Z</time>
      </trkpt>
      <trkpt lat="45.54927" lon="6.91819">
        <ele>1899.22</ele>
        <time>2015-03-19T13:14:59Z</time>
      </trkpt>
      <trkpt lat="45.54924" lon="6.91805">
        <ele>1898.26</ele>
        <time>2015-03-19T13:15:09Z</time>
      </trkpt>
      <trkpt lat="45.5492" lon="6.91791">
        <ele>1896.82</ele>
        <time>2015-03-19T13:15:29Z</time>
      </trkpt>
      <trkpt lat="45.54916" lon="6.91775">
        <ele>1895.86</ele>
        <time>2015-03-19T13:15:42Z</time>
      </trkpt>
      <trkpt lat="45.54914" lon="6.9176">
        <ele>1895.86</ele>
        <time>2015-03-19T13:15:54Z</time>
      </trkpt>
      <trkpt lat="45.54911" lon="6.91747">
        <ele>1895.86</ele>
        <time>2015-03-19T13:16:06Z</time>
      </trkpt>
      <trkpt lat="45.54914" lon="6.91732">
        <ele>1895.86</ele>
        <time>2015-03-19T13:16:18Z</time>
      </trkpt>
      <trkpt lat="45.54923" lon="6.91724">
        <ele>1895.38</ele>
        <time>2015-03-19T13:16:30Z</time>
      </trkpt>
      <trkpt lat="45.54931" lon="6.91716">
        <ele>1894.42</ele>
        <time>2015-03-19T13:16:42Z</time>
      </trkpt>
      <trkpt lat="45.54938" lon="6.91707">
        <ele>1892.97</ele>
        <time>2015-03-19T13:16:53Z</time>
      </trkpt>
      <trkpt lat="45.54947" lon="6.917">
        <ele>1892.49</ele>
        <time>2015-03-19T13:17:04Z</time>
      </trkpt>
      <trkpt lat="45.54951" lon="6.91689">
        <ele>1892.01</ele>
        <time>2015-03-19T13:17:38Z</time>
      </trkpt>
      <trkpt lat="45.54953" lon="6.91674">
        <ele>1892.01</ele>
        <time>2015-03-19T13:17:48Z</time>
      </trkpt>
      <trkpt lat="45.54956" lon="6.9166">
        <ele>1892.01</ele>
        <time>2015-03-19T13:19:19Z</time>
      </trkpt>
      <trkpt lat="45.54951" lon="6.91649">
        <ele>1890.57</ele>
        <time>2015-03-19T13:19:29Z</time>
      </trkpt>
      <trkpt lat="45.5495" lon="6.91636">
        <ele>1889.13</ele>
        <time>2015-03-19T13:19:49Z</time>
      </trkpt>
      <trkpt lat="45.5494" lon="6.91636">
        <ele>1887.21</ele>
        <time>2015-03-19T13:20:22Z</time>
      </trkpt>
      <trkpt lat="45.54929" lon="6.91639">
        <ele>1886.72</ele>
        <time>2015-03-19T13:20:33Z</time>
      </trkpt>
      <trkpt lat="45.54921" lon="6.91641">
        <ele>1885.76</ele>
        <time>2015-03-19T13:20:43Z</time>
      </trkpt>
      <trkpt lat="45.54912" lon="6.91647">
        <ele>1884.8</ele>
        <time>2015-03-19T13:20:53Z</time>
      </trkpt>
      <trkpt lat="45.54902" lon="6.91655">
        <ele>1883.36</ele>
        <time>2015-03-19T13:21:12Z</time>
      </trkpt>
      <trkpt lat="45.54893" lon="6.91662">
        <ele>1882.4</ele>
        <time>2015-03-19T13:21:22Z</time>
      </trkpt>
      <trkpt lat="45.54884" lon="6.91667">
        <ele>1881.92</ele>
        <time>2015-03-19T13:21:32Z</time>
      </trkpt>
      <trkpt lat="45.54874" lon="6.91669">
        <ele>1881.44</ele>
        <time>2015-03-19T13:21:42Z</time>
      </trkpt>
      <trkpt lat="45.54863" lon="6.91667">
        <ele>1880</ele>
        <time>2015-03-19T13:21:58Z</time>
      </trkpt>
      <trkpt lat="45.54855" lon="6.91666">
        <ele>1879.03</ele>
        <time>2015-03-19T13:22:10Z</time>
      </trkpt>
      <trkpt lat="45.54846" lon="6.91677">
        <ele>1878.55</ele>
        <time>2015-03-19T13:22:28Z</time>
      </trkpt>
      <trkpt lat="45.54851" lon="6.91695">
        <ele>1878.55</ele>
        <time>2015-03-19T13:23:01Z</time>
      </trkpt>
      <trkpt lat="45.54849" lon="6.91709">
        <ele>1877.59</ele>
        <time>2015-03-19T13:23:11Z</time>
      </trkpt>
      <trkpt lat="45.54847" lon="6.91721">
        <ele>1876.15</ele>
        <time>2015-03-19T13:23:20Z</time>
      </trkpt>
      <trkpt lat="45.54841" lon="6.91732">
        <ele>1875.19</ele>
        <time>2015-03-19T13:23:29Z</time>
      </trkpt>
      <trkpt lat="45.54832" lon="6.91742">
        <ele>1874.23</ele>
        <time>2015-03-19T13:23:38Z</time>
      </trkpt>
      <trkpt lat="45.54823" lon="6.9175">
        <ele>1873.27</ele>
        <time>2015-03-19T13:23:47Z</time>
      </trkpt>
      <trkpt lat="45.54814" lon="6.91759">
        <ele>1871.82</ele>
        <time>2015-03-19T13:23:56Z</time>
      </trkpt>
      <trkpt lat="45.54804" lon="6.91767">
        <ele>1871.34</ele>
        <time>2015-03-19T13:24:28Z</time>
      </trkpt>
      <trkpt lat="45.54796" lon="6.91778">
        <ele>1870.38</ele>
        <time>2015-03-19T13:24:39Z</time>
      </trkpt>
      <trkpt lat="45.54788" lon="6.91787">
        <ele>1868.94</ele>
        <time>2015-03-19T13:24:48Z</time>
      </trkpt>
      <trkpt lat="45.54779" lon="6.91795">
        <ele>1867.98</ele>
        <time>2015-03-19T13:24:56Z</time>
      </trkpt>
      <trkpt lat="45.54772" lon="6.91802">
        <ele>1867.5</ele>
        <time>2015-03-19T13:25:04Z</time>
      </trkpt>
      <trkpt lat="45.54764" lon="6.9181">
        <ele>1866.06</ele>
        <time>2015-03-19T13:25:12Z</time>
      </trkpt>
      <trkpt lat="45.54756" lon="6.91817">
        <ele>1865.09</ele>
        <time>2015-03-19T13:25:20Z</time>
      </trkpt>
      <trkpt lat="45.54748" lon="6.91825">
        <ele>1864.13</ele>
        <time>2015-03-19T13:25:28Z</time>
      </trkpt>
      <trkpt lat="45.54741" lon="6.91833">
        <ele>1862.69</ele>
        <time>2015-03-19T13:25:36Z</time>
      </trkpt>
      <trkpt lat="45.54732" lon="6.91842">
        <ele>1861.73</ele>
        <time>2015-03-19T13:25:45Z</time>
      </trkpt>
      <trkpt lat="45.54724" lon="6.9185">
        <ele>1860.77</ele>
        <time>2015-03-19T13:25:54Z</time>
      </trkpt>
      <trkpt lat="45.54716" lon="6.91858">
        <ele>1859.81</ele>
        <time>2015-03-19T13:26:03Z</time>
      </trkpt>
      <trkpt lat="45.54708" lon="6.91866">
        <ele>1858.85</ele>
        <time>2015-03-19T13:26:12Z</time>
      </trkpt>
      <trkpt lat="45.547" lon="6.91873">
        <ele>1857.89</ele>
        <time>2015-03-19T13:26:22Z</time>
      </trkpt>
      <trkpt lat="45.54691" lon="6.9188">
        <ele>1856.44</ele>
        <time>2015-03-19T13:26:30Z</time>
      </trkpt>
      <trkpt lat="45.5468" lon="6.91882">
        <ele>1855.48</ele>
        <time>2015-03-19T13:26:39Z</time>
      </trkpt>
      <trkpt lat="45.5467" lon="6.91884">
        <ele>1855</ele>
        <time>2015-03-19T13:26:48Z</time>
      </trkpt>
      <trkpt lat="45.5466" lon="6.91887">
        <ele>1853.56</ele>
        <time>2015-03-19T13:26:57Z</time>
      </trkpt>
      <trkpt lat="45.5465" lon="6.9189">
        <ele>1852.6</ele>
        <time>2015-03-19T13:27:06Z</time>
      </trkpt>
      <trkpt lat="45.54639" lon="6.91895">
        <ele>1851.64</ele>
        <time>2015-03-19T13:27:16Z</time>
      </trkpt>
      <trkpt lat="45.5463" lon="6.91898">
        <ele>1850.68</ele>
        <time>2015-03-19T13:27:25Z</time>
      </trkpt>
      <trkpt lat="45.54621" lon="6.91905">
        <ele>1849.23</ele>
        <time>2015-03-19T13:27:34Z</time>
      </trkpt>
      <trkpt lat="45.54611" lon="6.9191">
        <ele>1848.27</ele>
        <time>2015-03-19T13:27:43Z</time>
      </trkpt>
      <trkpt lat="45.54601" lon="6.91916">
        <ele>1847.31</ele>
        <time>2015-03-19T13:27:56Z</time>
      </trkpt>
      <trkpt lat="45.5459" lon="6.9192">
        <ele>1845.87</ele>
        <time>2015-03-19T13:28:08Z</time>
      </trkpt>
      <trkpt lat="45.54578" lon="6.91921">
        <ele>1844.91</ele>
        <time>2015-03-19T13:28:19Z</time>
      </trkpt>
      <trkpt lat="45.54569" lon="6.91927">
        <ele>1843.47</ele>
        <time>2015-03-19T13:28:29Z</time>
      </trkpt>
      <trkpt lat="45.54559" lon="6.91932">
        <ele>1842.02</ele>
        <time>2015-03-19T13:28:39Z</time>
      </trkpt>
      <trkpt lat="45.54549" lon="6.9194">
        <ele>1841.06</ele>
        <time>2015-03-19T13:28:49Z</time>
      </trkpt>
      <trkpt lat="45.5454" lon="6.91943">
        <ele>1840.1</ele>
        <time>2015-03-19T13:28:59Z</time>
      </trkpt>
      <trkpt lat="45.5453" lon="6.91948">
        <ele>1838.66</ele>
        <time>2015-03-19T13:29:09Z</time>
      </trkpt>
      <trkpt lat="45.54519" lon="6.91951">
        <ele>1838.18</ele>
        <time>2015-03-19T13:29:19Z</time>
      </trkpt>
      <trkpt lat="45.54508" lon="6.91953">
        <ele>1836.74</ele>
        <time>2015-03-19T13:29:29Z</time>
      </trkpt>
      <trkpt lat="45.54498" lon="6.91952">
        <ele>1835.77</ele>
        <time>2015-03-19T13:29:39Z</time>
      </trkpt>
      <trkpt lat="45.54487" lon="6.91951">
        <ele>1835.29</ele>
        <time>2015-03-19T13:29:50Z</time>
      </trkpt>
      <trkpt lat="45.54493" lon="6.91934">
        <ele>1834.81</ele>
        <time>2015-03-19T13:31:48Z</time>
      </trkpt>
      <trkpt lat="45.54505" lon="6.91934">
        <ele>1832.89</ele>
        <time>2015-03-19T13:32:01Z</time>
      </trkpt>
      <trkpt lat="45.54518" lon="6.91928">
        <ele>1831.45</ele>
        <time>2015-03-19T13:32:16Z</time>
      </trkpt>
      <trkpt lat="45.54528" lon="6.9192">
        <ele>1830.49</ele>
        <time>2015-03-19T13:32:28Z</time>
      </trkpt>
      <trkpt lat="45.54535" lon="6.91911">
        <ele>1829.53</ele>
        <time>2015-03-19T13:32:38Z</time>
      </trkpt>
      <trkpt lat="45.54545" lon="6.91905">
        <ele>1828.56</ele>
        <time>2015-03-19T13:32:49Z</time>
      </trkpt>
      <trkpt lat="45.54554" lon="6.91898">
        <ele>1827.12</ele>
        <time>2015-03-19T13:33:00Z</time>
      </trkpt>
      <trkpt lat="45.54563" lon="6.91888">
        <ele>1825.68</ele>
        <time>2015-03-19T13:33:12Z</time>
      </trkpt>
      <trkpt lat="45.54571" lon="6.91878">
        <ele>1825.2</ele>
        <time>2015-03-19T13:33:23Z</time>
      </trkpt>
      <trkpt lat="45.5458" lon="6.91868">
        <ele>1824.72</ele>
        <time>2015-03-19T13:33:34Z</time>
      </trkpt>
      <trkpt lat="45.54589" lon="6.91855">
        <ele>1823.76</ele>
        <time>2015-03-19T13:33:48Z</time>
      </trkpt>
      <trkpt lat="45.54595" lon="6.91843">
        <ele>1822.8</ele>
        <time>2015-03-19T13:33:58Z</time>
      </trkpt>
      <trkpt lat="45.546" lon="6.91831">
        <ele>1821.35</ele>
        <time>2015-03-19T13:34:07Z</time>
      </trkpt>
      <trkpt lat="45.54606" lon="6.91818">
        <ele>1820.39</ele>
        <time>2015-03-19T13:34:16Z</time>
      </trkpt>
      <trkpt lat="45.54612" lon="6.91807">
        <ele>1818.95</ele>
        <time>2015-03-19T13:34:25Z</time>
      </trkpt>
      <trkpt lat="45.54619" lon="6.91796">
        <ele>1817.51</ele>
        <time>2015-03-19T13:34:35Z</time>
      </trkpt>
      <trkpt lat="45.54625" lon="6.91785">
        <ele>1817.03</ele>
        <time>2015-03-19T13:34:45Z</time>
      </trkpt>
      <trkpt lat="45.54629" lon="6.9177">
        <ele>1815.59</ele>
        <time>2015-03-19T13:34:56Z</time>
      </trkpt>
      <trkpt lat="45.54628" lon="6.91754">
        <ele>1814.15</ele>
        <time>2015-03-19T13:35:08Z</time>
      </trkpt>
      <trkpt lat="45.5463" lon="6.91737">
        <ele>1813.18</ele>
        <time>2015-03-19T13:35:18Z</time>
      </trkpt>
      <trkpt lat="45.54635" lon="6.91724">
        <ele>1812.22</ele>
        <time>2015-03-19T13:35:28Z</time>
      </trkpt>
      <trkpt lat="45.54641" lon="6.91718">
        <ele>1810.78</ele>
        <time>2015-03-19T13:35:38Z</time>
      </trkpt>
      <trkpt lat="45.5465" lon="6.91711">
        <ele>1809.34</ele>
        <time>2015-03-19T13:35:49Z</time>
      </trkpt>
      <trkpt lat="45.5466" lon="6.91703">
        <ele>1808.38</ele>
        <time>2015-03-19T13:36:00Z</time>
      </trkpt>
      <trkpt lat="45.54669" lon="6.91693">
        <ele>1807.9</ele>
        <time>2015-03-19T13:36:10Z</time>
      </trkpt>
      <trkpt lat="45.54675" lon="6.9168">
        <ele>1805.97</ele>
        <time>2015-03-19T13:36:22Z</time>
      </trkpt>
      <trkpt lat="45.54681" lon="6.91665">
        <ele>1805.97</ele>
        <time>2015-03-19T13:36:32Z</time>
      </trkpt>
      <trkpt lat="45.54686" lon="6.91653">
        <ele>1804.05</ele>
        <time>2015-03-19T13:36:41Z</time>
      </trkpt>
      <trkpt lat="45.54691" lon="6.91641">
        <ele>1803.09</ele>
        <time>2015-03-19T13:36:51Z</time>
      </trkpt>
      <trkpt lat="45.54697" lon="6.91628">
        <ele>1802.13</ele>
        <time>2015-03-19T13:37:01Z</time>
      </trkpt>
      <trkpt lat="45.54703" lon="6.91618">
        <ele>1800.69</ele>
        <time>2015-03-19T13:37:10Z</time>
      </trkpt>
      <trkpt lat="45.54709" lon="6.91606">
        <ele>1799.73</ele>
        <time>2015-03-19T13:37:20Z</time>
      </trkpt>
      <trkpt lat="45.54715" lon="6.91594">
        <ele>1798.76</ele>
        <time>2015-03-19T13:37:29Z</time>
      </trkpt>
      <trkpt lat="45.5472" lon="6.91582">
        <ele>1797.32</ele>
        <time>2015-03-19T13:37:38Z</time>
      </trkpt>
      <trkpt lat="45.54726" lon="6.9157">
        <ele>1796.36</ele>
        <time>2015-03-19T13:37:48Z</time>
      </trkpt>
      <trkpt lat="45.54728" lon="6.91555">
        <ele>1795.4</ele>
        <time>2015-03-19T13:37:58Z</time>
      </trkpt>
      <trkpt lat="45.54732" lon="6.91541">
        <ele>1794.92</ele>
        <time>2015-03-19T13:38:08Z</time>
      </trkpt>
      <trkpt lat="45.54739" lon="6.91531">
        <ele>1794.44</ele>
        <time>2015-03-19T13:38:17Z</time>
      </trkpt>
      <trkpt lat="45.54746" lon="6.91522">
        <ele>1793.96</ele>
        <time>2015-03-19T13:38:26Z</time>
      </trkpt>
      <trkpt lat="45.54753" lon="6.91512">
        <ele>1793.48</ele>
        <time>2015-03-19T13:38:35Z</time>
      </trkpt>
      <trkpt lat="45.5476" lon="6.91501">
        <ele>1792.52</ele>
        <time>2015-03-19T13:38:45Z</time>
      </trkpt>
      <trkpt lat="45.54765" lon="6.91489">
        <ele>1792.03</ele>
        <time>2015-03-19T13:38:54Z</time>
      </trkpt>
      <trkpt lat="45.5477" lon="6.91478">
        <ele>1792.03</ele>
        <time>2015-03-19T13:39:02Z</time>
      </trkpt>
      <trkpt lat="45.54776" lon="6.91467">
        <ele>1791.55</ele>
        <time>2015-03-19T13:39:10Z</time>
      </trkpt>
      <trkpt lat="45.54782" lon="6.91456">
        <ele>1791.07</ele>
        <time>2015-03-19T13:39:18Z</time>
      </trkpt>
      <trkpt lat="45.54789" lon="6.91445">
        <ele>1790.11</ele>
        <time>2015-03-19T13:39:27Z</time>
      </trkpt>
      <trkpt lat="45.54796" lon="6.91438">
        <ele>1790.11</ele>
        <time>2015-03-19T13:39:37Z</time>
      </trkpt>
      <trkpt lat="45.54804" lon="6.91431">
        <ele>1789.15</ele>
        <time>2015-03-19T13:39:46Z</time>
      </trkpt>
      <trkpt lat="45.54812" lon="6.91421">
        <ele>1788.67</ele>
        <time>2015-03-19T13:39:56Z</time>
      </trkpt>
      <trkpt lat="45.54817" lon="6.91408">
        <ele>1788.19</ele>
        <time>2015-03-19T13:40:16Z</time>
      </trkpt>
      <trkpt lat="45.54811" lon="6.91408">
        <ele>1787.23</ele>
        <time>2015-03-19T13:40:35Z</time>
      </trkpt>
      <trkpt lat="45.54803" lon="6.91423">
        <ele>1785.79</ele>
        <time>2015-03-19T13:40:49Z</time>
      </trkpt>
      <trkpt lat="45.54795" lon="6.9143">
        <ele>1785.31</ele>
        <time>2015-03-19T13:40:59Z</time>
      </trkpt>
      <trkpt lat="45.54786" lon="6.91437">
        <ele>1783.38</ele>
        <time>2015-03-19T13:41:09Z</time>
      </trkpt>
      <trkpt lat="45.54777" lon="6.91443">
        <ele>1782.42</ele>
        <time>2015-03-19T13:41:18Z</time>
      </trkpt>
      <trkpt lat="45.54769" lon="6.91453">
        <ele>1780.98</ele>
        <time>2015-03-19T13:41:28Z</time>
      </trkpt>
      <trkpt lat="45.54761" lon="6.91459">
        <ele>1780.02</ele>
        <time>2015-03-19T13:41:38Z</time>
      </trkpt>
      <trkpt lat="45.54753" lon="6.91466">
        <ele>1779.54</ele>
        <time>2015-03-19T13:41:48Z</time>
      </trkpt>
      <trkpt lat="45.54744" lon="6.91477">
        <ele>1778.1</ele>
        <time>2015-03-19T13:41:58Z</time>
      </trkpt>
      <trkpt lat="45.54736" lon="6.91485">
        <ele>1777.13</ele>
        <time>2015-03-19T13:42:08Z</time>
      </trkpt>
      <trkpt lat="45.54728" lon="6.91495">
        <ele>1776.17</ele>
        <time>2015-03-19T13:42:18Z</time>
      </trkpt>
      <trkpt lat="45.5472" lon="6.91506">
        <ele>1774.25</ele>
        <time>2015-03-19T13:42:29Z</time>
      </trkpt>
      <trkpt lat="45.54711" lon="6.91512">
        <ele>1773.29</ele>
        <time>2015-03-19T13:42:39Z</time>
      </trkpt>
      <trkpt lat="45.54701" lon="6.91518">
        <ele>1772.81</ele>
        <time>2015-03-19T13:42:49Z</time>
      </trkpt>
      <trkpt lat="45.54691" lon="6.91527">
        <ele>1771.37</ele>
        <time>2015-03-19T13:43:00Z</time>
      </trkpt>
      <trkpt lat="45.54684" lon="6.91537">
        <ele>1769.44</ele>
        <time>2015-03-19T13:43:11Z</time>
      </trkpt>
      <trkpt lat="45.54674" lon="6.91545">
        <ele>1768.96</ele>
        <time>2015-03-19T13:43:21Z</time>
      </trkpt>
      <trkpt lat="45.54664" lon="6.91556">
        <ele>1767.52</ele>
        <time>2015-03-19T13:43:32Z</time>
      </trkpt>
      <trkpt lat="45.54654" lon="6.91562">
        <ele>1765.6</ele>
        <time>2015-03-19T13:43:42Z</time>
      </trkpt>
      <trkpt lat="45.54644" lon="6.91558">
        <ele>1765.12</ele>
        <time>2015-03-19T13:43:51Z</time>
      </trkpt>
      <trkpt lat="45.54634" lon="6.91552">
        <ele>1764.64</ele>
        <time>2015-03-19T13:44:01Z</time>
      </trkpt>
      <trkpt lat="45.54626" lon="6.91547">
        <ele>1762.71</ele>
        <time>2015-03-19T13:44:11Z</time>
      </trkpt>
      <trkpt lat="45.54617" lon="6.9155">
        <ele>1761.75</ele>
        <time>2015-03-19T13:44:21Z</time>
      </trkpt>
      <trkpt lat="45.54607" lon="6.91559">
        <ele>1760.79</ele>
        <time>2015-03-19T13:44:31Z</time>
      </trkpt>
      <trkpt lat="45.546" lon="6.9157">
        <ele>1759.83</ele>
        <time>2015-03-19T13:44:41Z</time>
      </trkpt>
      <trkpt lat="45.54596" lon="6.91584">
        <ele>1758.39</ele>
        <time>2015-03-19T13:44:52Z</time>
      </trkpt>
      <trkpt lat="45.54594" lon="6.91601">
        <ele>1756.95</ele>
        <time>2015-03-19T13:45:07Z</time>
      </trkpt>
      <trkpt lat="45.54588" lon="6.91615">
        <ele>1755.5</ele>
        <time>2015-03-19T13:45:19Z</time>
      </trkpt>
      <trkpt lat="45.54576" lon="6.91632">
        <ele>1754.54</ele>
        <time>2015-03-19T13:45:37Z</time>
      </trkpt>
      <trkpt lat="45.54566" lon="6.91644">
        <ele>1752.62</ele>
        <time>2015-03-19T13:45:49Z</time>
      </trkpt>
      <trkpt lat="45.54554" lon="6.91651">
        <ele>1751.18</ele>
        <time>2015-03-19T13:46:04Z</time>
      </trkpt>
      <trkpt lat="45.54544" lon="6.91648">
        <ele>1750.22</ele>
        <time>2015-03-19T13:46:14Z</time>
      </trkpt>
      <trkpt lat="45.54534" lon="6.91645">
        <ele>1748.29</ele>
        <time>2015-03-19T13:46:35Z</time>
      </trkpt>
      <trkpt lat="45.54524" lon="6.91643">
        <ele>1746.85</ele>
        <time>2015-03-19T13:46:45Z</time>
      </trkpt>
      <trkpt lat="45.54515" lon="6.91635">
        <ele>1745.41</ele>
        <time>2015-03-19T13:46:55Z</time>
      </trkpt>
      <trkpt lat="45.54514" lon="6.91614">
        <ele>1743.49</ele>
        <time>2015-03-19T13:47:58Z</time>
      </trkpt>
      <trkpt lat="45.54519" lon="6.91608">
        <ele>1743.01</ele>
        <time>2015-03-19T13:48:57Z</time>
      </trkpt>
      <trkpt lat="45.54523" lon="6.91596">
        <ele>1742.05</ele>
        <time>2015-03-19T13:49:07Z</time>
      </trkpt>
      <trkpt lat="45.54526" lon="6.91583">
        <ele>1739.64</ele>
        <time>2015-03-19T13:49:18Z</time>
      </trkpt>
      <trkpt lat="45.54527" lon="6.91569">
        <ele>1738.68</ele>
        <time>2015-03-19T13:49:28Z</time>
      </trkpt>
      <trkpt lat="45.54529" lon="6.91554">
        <ele>1736.76</ele>
        <time>2015-03-19T13:49:38Z</time>
      </trkpt>
      <trkpt lat="45.54531" lon="6.91539">
        <ele>1734.84</ele>
        <time>2015-03-19T13:49:48Z</time>
      </trkpt>
      <trkpt lat="45.54536" lon="6.91527">
        <ele>1733.39</ele>
        <time>2015-03-19T13:49:58Z</time>
      </trkpt>
      <trkpt lat="45.54545" lon="6.91522">
        <ele>1731.47</ele>
        <time>2015-03-19T13:50:08Z</time>
      </trkpt>
      <trkpt lat="45.54556" lon="6.91514">
        <ele>1729.07</ele>
        <time>2015-03-19T13:50:20Z</time>
      </trkpt>
      <trkpt lat="45.54565" lon="6.91502">
        <ele>1727.63</ele>
        <time>2015-03-19T13:50:31Z</time>
      </trkpt>
      <trkpt lat="45.54568" lon="6.91487">
        <ele>1725.7</ele>
        <time>2015-03-19T13:50:45Z</time>
      </trkpt>
      <trkpt lat="45.5457" lon="6.91471">
        <ele>1723.3</ele>
        <time>2015-03-19T13:50:57Z</time>
      </trkpt>
      <trkpt lat="45.54574" lon="6.91456">
        <ele>1720.42</ele>
        <time>2015-03-19T13:51:17Z</time>
      </trkpt>
      <trkpt lat="45.54578" lon="6.91442">
        <ele>1718.49</ele>
        <time>2015-03-19T13:51:29Z</time>
      </trkpt>
      <trkpt lat="45.54581" lon="6.91427">
        <ele>1717.53</ele>
        <time>2015-03-19T13:51:40Z</time>
      </trkpt>
      <trkpt lat="45.54583" lon="6.91414">
        <ele>1716.57</ele>
        <time>2015-03-19T13:51:51Z</time>
      </trkpt>
      <trkpt lat="45.54584" lon="6.91399">
        <ele>1715.13</ele>
        <time>2015-03-19T13:52:01Z</time>
      </trkpt>
      <trkpt lat="45.54588" lon="6.91386">
        <ele>1713.21</ele>
        <time>2015-03-19T13:52:13Z</time>
      </trkpt>
      <trkpt lat="45.54597" lon="6.91378">
        <ele>1711.28</ele>
        <time>2015-03-19T13:52:24Z</time>
      </trkpt>
      <trkpt lat="45.54607" lon="6.91372">
        <ele>1709.36</ele>
        <time>2015-03-19T13:52:35Z</time>
      </trkpt>
      <trkpt lat="45.54616" lon="6.91363">
        <ele>1706.96</ele>
        <time>2015-03-19T13:52:46Z</time>
      </trkpt>
      <trkpt lat="45.54625" lon="6.91354">
        <ele>1705.52</ele>
        <time>2015-03-19T13:52:57Z</time>
      </trkpt>
      <trkpt lat="45.54631" lon="6.91341">
        <ele>1703.59</ele>
        <time>2015-03-19T13:53:10Z</time>
      </trkpt>
      <trkpt lat="45.54625" lon="6.91335">
        <ele>1701.67</ele>
        <time>2015-03-19T13:56:43Z</time>
      </trkpt>
      <trkpt lat="45.54618" lon="6.9134">
        <ele>1702.15</ele>
        <time>2015-03-19T13:59:22Z</time>
      </trkpt>
      <trkpt lat="45.54609" lon="6.91345">
        <ele>1702.15</ele>
        <time>2015-03-19T13:59:32Z</time>
      </trkpt>
      <trkpt lat="45.546" lon="6.91351">
        <ele>1702.15</ele>
        <time>2015-03-19T13:59:42Z</time>
      </trkpt>
      <trkpt lat="45.5459" lon="6.91356">
        <ele>1702.63</ele>
        <time>2015-03-19T13:59:51Z</time>
      </trkpt>
      <trkpt lat="45.54582" lon="6.91361">
        <ele>1701.67</ele>
        <time>2015-03-19T14:00:00Z</time>
      </trkpt>
      <trkpt lat="45.54573" lon="6.91368">
        <ele>1701.19</ele>
        <time>2015-03-19T14:00:09Z</time>
      </trkpt>
      <trkpt lat="45.54566" lon="6.91375">
        <ele>1700.23</ele>
        <time>2015-03-19T14:00:16Z</time>
      </trkpt>
      <trkpt lat="45.54558" lon="6.91382">
        <ele>1699.75</ele>
        <time>2015-03-19T14:00:23Z</time>
      </trkpt>
      <trkpt lat="45.54548" lon="6.91387">
        <ele>1697.83</ele>
        <time>2015-03-19T14:00:32Z</time>
      </trkpt>
      <trkpt lat="45.54539" lon="6.91394">
        <ele>1697.34</ele>
        <time>2015-03-19T14:00:41Z</time>
      </trkpt>
      <trkpt lat="45.54532" lon="6.91404">
        <ele>1695.9</ele>
        <time>2015-03-19T14:00:51Z</time>
      </trkpt>
      <trkpt lat="45.54525" lon="6.91413">
        <ele>1695.42</ele>
        <time>2015-03-19T14:00:59Z</time>
      </trkpt>
      <trkpt lat="45.54516" lon="6.91421">
        <ele>1694.46</ele>
        <time>2015-03-19T14:01:08Z</time>
      </trkpt>
      <trkpt lat="45.54506" lon="6.91433">
        <ele>1693.98</ele>
        <time>2015-03-19T14:01:22Z</time>
      </trkpt>
      <trkpt lat="45.54496" lon="6.91443">
        <ele>1693.02</ele>
        <time>2015-03-19T14:01:41Z</time>
      </trkpt>
      <trkpt lat="45.54487" lon="6.91453">
        <ele>1692.06</ele>
        <time>2015-03-19T14:01:50Z</time>
      </trkpt>
      <trkpt lat="45.54476" lon="6.91461">
        <ele>1691.58</ele>
        <time>2015-03-19T14:01:59Z</time>
      </trkpt>
      <trkpt lat="45.54466" lon="6.91466">
        <ele>1691.1</ele>
        <time>2015-03-19T14:02:08Z</time>
      </trkpt>
      <trkpt lat="45.54459" lon="6.91464">
        <ele>1691.1</ele>
        <time>2015-03-19T14:02:30Z</time>
      </trkpt>
      <trkpt lat="45.54449" lon="6.9147">
        <ele>1689.65</ele>
        <time>2015-03-19T14:02:38Z</time>
      </trkpt>
      <trkpt lat="45.54438" lon="6.91474">
        <ele>1689.65</ele>
        <time>2015-03-19T14:02:47Z</time>
      </trkpt>
      <trkpt lat="45.54429" lon="6.91479">
        <ele>1689.17</ele>
        <time>2015-03-19T14:02:55Z</time>
      </trkpt>
      <trkpt lat="45.54421" lon="6.91485">
        <ele>1688.21</ele>
        <time>2015-03-19T14:03:04Z</time>
      </trkpt>
      <trkpt lat="45.5441" lon="6.9149">
        <ele>1687.73</ele>
        <time>2015-03-19T14:03:13Z</time>
      </trkpt>
      <trkpt lat="45.544" lon="6.91495">
        <ele>1687.25</ele>
        <time>2015-03-19T14:03:21Z</time>
      </trkpt>
      <trkpt lat="45.54391" lon="6.915">
        <ele>1686.77</ele>
        <time>2015-03-19T14:03:30Z</time>
      </trkpt>
      <trkpt lat="45.54383" lon="6.91505">
        <ele>1686.77</ele>
        <time>2015-03-19T14:03:38Z</time>
      </trkpt>
      <trkpt lat="45.54373" lon="6.91511">
        <ele>1685.81</ele>
        <time>2015-03-19T14:03:47Z</time>
      </trkpt>
      <trkpt lat="45.54365" lon="6.91517">
        <ele>1685.33</ele>
        <time>2015-03-19T14:03:55Z</time>
      </trkpt>
      <trkpt lat="45.54357" lon="6.91522">
        <ele>1684.85</ele>
        <time>2015-03-19T14:04:03Z</time>
      </trkpt>
      <trkpt lat="45.54347" lon="6.91527">
        <ele>1684.37</ele>
        <time>2015-03-19T14:04:12Z</time>
      </trkpt>
      <trkpt lat="45.54335" lon="6.91525">
        <ele>1683.89</ele>
        <time>2015-03-19T14:04:22Z</time>
      </trkpt>
      <trkpt lat="45.54323" lon="6.91517">
        <ele>1682.44</ele>
        <time>2015-03-19T14:04:40Z</time>
      </trkpt>
      <trkpt lat="45.54316" lon="6.91508">
        <ele>1681.96</ele>
        <time>2015-03-19T14:04:49Z</time>
      </trkpt>
      <trkpt lat="45.54313" lon="6.91493">
        <ele>1681</ele>
        <time>2015-03-19T14:05:00Z</time>
      </trkpt>
      <trkpt lat="45.54311" lon="6.91478">
        <ele>1680.52</ele>
        <time>2015-03-19T14:05:15Z</time>
      </trkpt>
      <trkpt lat="45.54307" lon="6.91464">
        <ele>1680.04</ele>
        <time>2015-03-19T14:05:24Z</time>
      </trkpt>
      <trkpt lat="45.54301" lon="6.91451">
        <ele>1679.56</ele>
        <time>2015-03-19T14:05:34Z</time>
      </trkpt>
      <trkpt lat="45.54294" lon="6.91438">
        <ele>1679.08</ele>
        <time>2015-03-19T14:05:44Z</time>
      </trkpt>
      <trkpt lat="45.54287" lon="6.91425">
        <ele>1679.08</ele>
        <time>2015-03-19T14:05:54Z</time>
      </trkpt>
      <trkpt lat="45.54271" lon="6.91418">
        <ele>1679.08</ele>
        <time>2015-03-19T14:06:02Z</time>
      </trkpt>
      <trkpt lat="45.54262" lon="6.91414">
        <ele>1679.08</ele>
        <time>2015-03-19T14:06:10Z</time>
      </trkpt>
      <trkpt lat="45.54252" lon="6.91413">
        <ele>1679.08</ele>
        <time>2015-03-19T14:06:21Z</time>
      </trkpt>
      <trkpt lat="45.54241" lon="6.91414">
        <ele>1679.08</ele>
        <time>2015-03-19T14:06:32Z</time>
      </trkpt>
      <trkpt lat="45.5423" lon="6.91414">
        <ele>1679.08</ele>
        <time>2015-03-19T14:06:42Z</time>
      </trkpt>
      <trkpt lat="45.5422" lon="6.91413">
        <ele>1679.08</ele>
        <time>2015-03-19T14:06:52Z</time>
      </trkpt>
      <trkpt lat="45.5421" lon="6.91407">
        <ele>1679.08</ele>
        <time>2015-03-19T14:07:02Z</time>
      </trkpt>
      <trkpt lat="45.54199" lon="6.91405">
        <ele>1678.6</ele>
        <time>2015-03-19T14:07:12Z</time>
      </trkpt>
      <trkpt lat="45.5419" lon="6.91398">
        <ele>1678.6</ele>
        <time>2015-03-19T14:07:22Z</time>
      </trkpt>
      <trkpt lat="45.54182" lon="6.91388">
        <ele>1677.64</ele>
        <time>2015-03-19T14:07:32Z</time>
      </trkpt>
      <trkpt lat="45.54175" lon="6.91376">
        <ele>1677.16</ele>
        <time>2015-03-19T14:07:42Z</time>
      </trkpt>
      <trkpt lat="45.54166" lon="6.91375">
        <ele>1677.16</ele>
        <time>2015-03-19T14:07:52Z</time>
      </trkpt>
      <trkpt lat="45.5416" lon="6.91381">
        <ele>1676.2</ele>
        <time>2015-03-19T14:08:01Z</time>
      </trkpt>
      <trkpt lat="45.54154" lon="6.91389">
        <ele>1676.2</ele>
        <time>2015-03-19T14:08:10Z</time>
      </trkpt>
      <trkpt lat="45.54147" lon="6.91399">
        <ele>1675.72</ele>
        <time>2015-03-19T14:08:19Z</time>
      </trkpt>
      <trkpt lat="45.54139" lon="6.91407">
        <ele>1675.23</ele>
        <time>2015-03-19T14:08:28Z</time>
      </trkpt>
      <trkpt lat="45.5413" lon="6.91414">
        <ele>1675.23</ele>
        <time>2015-03-19T14:08:36Z</time>
      </trkpt>
      <trkpt lat="45.54121" lon="6.91421">
        <ele>1674.75</ele>
        <time>2015-03-19T14:08:45Z</time>
      </trkpt>
      <trkpt lat="45.54113" lon="6.91426">
        <ele>1674.27</ele>
        <time>2015-03-19T14:08:53Z</time>
      </trkpt>
      <trkpt lat="45.54105" lon="6.91432">
        <ele>1674.27</ele>
        <time>2015-03-19T14:09:02Z</time>
      </trkpt>
      <trkpt lat="45.54096" lon="6.91439">
        <ele>1673.31</ele>
        <time>2015-03-19T14:09:11Z</time>
      </trkpt>
      <trkpt lat="45.54088" lon="6.91446">
        <ele>1672.35</ele>
        <time>2015-03-19T14:09:22Z</time>
      </trkpt>
      <trkpt lat="45.54084" lon="6.91456">
        <ele>1671.87</ele>
        <time>2015-03-19T14:09:32Z</time>
      </trkpt>
      <trkpt lat="45.54078" lon="6.91467">
        <ele>1670.91</ele>
        <time>2015-03-19T14:09:42Z</time>
      </trkpt>
      <trkpt lat="45.5407" lon="6.91479">
        <ele>1669.95</ele>
        <time>2015-03-19T14:09:52Z</time>
      </trkpt>
      <trkpt lat="45.54063" lon="6.91489">
        <ele>1668.99</ele>
        <time>2015-03-19T14:10:01Z</time>
      </trkpt>
      <trkpt lat="45.54053" lon="6.91498">
        <ele>1668.02</ele>
        <time>2015-03-19T14:10:10Z</time>
      </trkpt>
      <trkpt lat="45.54044" lon="6.91503">
        <ele>1667.06</ele>
        <time>2015-03-19T14:10:19Z</time>
      </trkpt>
      <trkpt lat="45.54034" lon="6.91505">
        <ele>1666.1</ele>
        <time>2015-03-19T14:10:27Z</time>
      </trkpt>
      <trkpt lat="45.54025" lon="6.9151">
        <ele>1665.14</ele>
        <time>2015-03-19T14:10:35Z</time>
      </trkpt>
      <trkpt lat="45.54016" lon="6.91514">
        <ele>1664.18</ele>
        <time>2015-03-19T14:10:44Z</time>
      </trkpt>
      <trkpt lat="45.5401" lon="6.91522">
        <ele>1663.22</ele>
        <time>2015-03-19T14:10:53Z</time>
      </trkpt>
      <trkpt lat="45.54003" lon="6.91532">
        <ele>1661.78</ele>
        <time>2015-03-19T14:11:02Z</time>
      </trkpt>
      <trkpt lat="45.53998" lon="6.91543">
        <ele>1660.81</ele>
        <time>2015-03-19T14:11:11Z</time>
      </trkpt>
      <trkpt lat="45.53992" lon="6.91553">
        <ele>1659.37</ele>
        <time>2015-03-19T14:11:20Z</time>
      </trkpt>
      <trkpt lat="45.53985" lon="6.91563">
        <ele>1658.89</ele>
        <time>2015-03-19T14:11:29Z</time>
      </trkpt>
      <trkpt lat="45.53971" lon="6.91561">
        <ele>1657.45</ele>
        <time>2015-03-19T14:11:39Z</time>
      </trkpt>
      <trkpt lat="45.53959" lon="6.91559">
        <ele>1656.01</ele>
        <time>2015-03-19T14:11:48Z</time>
      </trkpt>
      <trkpt lat="45.53947" lon="6.9156">
        <ele>1655.05</ele>
        <time>2015-03-19T14:11:58Z</time>
      </trkpt>
      <trkpt lat="45.53937" lon="6.91559">
        <ele>1653.6</ele>
        <time>2015-03-19T14:12:07Z</time>
      </trkpt>
      <trkpt lat="45.53928" lon="6.91565">
        <ele>1651.68</ele>
        <time>2015-03-19T14:12:22Z</time>
      </trkpt>
      <trkpt lat="45.53917" lon="6.91573">
        <ele>1650.24</ele>
        <time>2015-03-19T14:12:36Z</time>
      </trkpt>
      <trkpt lat="45.53903" lon="6.91578">
        <ele>1648.8</ele>
        <time>2015-03-19T14:12:47Z</time>
      </trkpt>
      <trkpt lat="45.53889" lon="6.91578">
        <ele>1647.36</ele>
        <time>2015-03-19T14:12:59Z</time>
      </trkpt>
      <trkpt lat="45.53874" lon="6.91583">
        <ele>1645.91</ele>
        <time>2015-03-19T14:13:10Z</time>
      </trkpt>
      <trkpt lat="45.53868" lon="6.91591">
        <ele>1644.47</ele>
        <time>2015-03-19T14:13:24Z</time>
      </trkpt>
      <trkpt lat="45.53859" lon="6.91601">
        <ele>1643.03</ele>
        <time>2015-03-19T14:13:37Z</time>
      </trkpt>
      <trkpt lat="45.5385" lon="6.91617">
        <ele>1641.11</ele>
        <time>2015-03-19T14:13:54Z</time>
      </trkpt>
      <trkpt lat="45.5384" lon="6.91632">
        <ele>1639.67</ele>
        <time>2015-03-19T14:14:08Z</time>
      </trkpt>
      <trkpt lat="45.53832" lon="6.91647">
        <ele>1638.7</ele>
        <time>2015-03-19T14:14:20Z</time>
      </trkpt>
      <trkpt lat="45.53821" lon="6.91656">
        <ele>1637.74</ele>
        <time>2015-03-19T14:14:30Z</time>
      </trkpt>
      <trkpt lat="45.53814" lon="6.91667">
        <ele>1637.74</ele>
        <time>2015-03-19T14:14:39Z</time>
      </trkpt>
      <trkpt lat="45.53806" lon="6.91678">
        <ele>1636.78</ele>
        <time>2015-03-19T14:14:48Z</time>
      </trkpt>
      <trkpt lat="45.53796" lon="6.91685">
        <ele>1636.3</ele>
        <time>2015-03-19T14:14:57Z</time>
      </trkpt>
      <trkpt lat="45.53782" lon="6.91687">
        <ele>1634.86</ele>
        <time>2015-03-19T14:15:07Z</time>
      </trkpt>
      <trkpt lat="45.53778" lon="6.91674">
        <ele>1632.46</ele>
        <time>2015-03-19T14:15:17Z</time>
      </trkpt>
      <trkpt lat="45.53783" lon="6.91661">
        <ele>1631.98</ele>
        <time>2015-03-19T14:15:26Z</time>
      </trkpt>
      <trkpt lat="45.53792" lon="6.91653">
        <ele>1630.53</ele>
        <time>2015-03-19T14:15:35Z</time>
      </trkpt>
      <trkpt lat="45.538" lon="6.91642">
        <ele>1629.57</ele>
        <time>2015-03-19T14:15:44Z</time>
      </trkpt>
      <trkpt lat="45.53805" lon="6.91631">
        <ele>1628.13</ele>
        <time>2015-03-19T14:15:53Z</time>
      </trkpt>
      <trkpt lat="45.53808" lon="6.91621">
        <ele>1626.69</ele>
        <time>2015-03-19T14:16:03Z</time>
      </trkpt>
      <trkpt lat="45.53809" lon="6.91608">
        <ele>1625.73</ele>
        <time>2015-03-19T14:16:11Z</time>
      </trkpt>
      <trkpt lat="45.53812" lon="6.91595">
        <ele>1624.77</ele>
        <time>2015-03-19T14:16:19Z</time>
      </trkpt>
      <trkpt lat="45.53815" lon="6.9158">
        <ele>1623.8</ele>
        <time>2015-03-19T14:16:28Z</time>
      </trkpt>
      <trkpt lat="45.53821" lon="6.91567">
        <ele>1622.36</ele>
        <time>2015-03-19T14:16:37Z</time>
      </trkpt>
      <trkpt lat="45.53829" lon="6.91558">
        <ele>1621.88</ele>
        <time>2015-03-19T14:16:45Z</time>
      </trkpt>
      <trkpt lat="45.53837" lon="6.91552">
        <ele>1620.92</ele>
        <time>2015-03-19T14:16:54Z</time>
      </trkpt>
      <trkpt lat="45.53844" lon="6.91543">
        <ele>1619.96</ele>
        <time>2015-03-19T14:17:04Z</time>
      </trkpt>
      <trkpt lat="45.53851" lon="6.91532">
        <ele>1619.48</ele>
        <time>2015-03-19T14:17:14Z</time>
      </trkpt>
      <trkpt lat="45.53859" lon="6.91523">
        <ele>1618.04</ele>
        <time>2015-03-19T14:17:23Z</time>
      </trkpt>
      <trkpt lat="45.53868" lon="6.91517">
        <ele>1617.07</ele>
        <time>2015-03-19T14:17:33Z</time>
      </trkpt>
      <trkpt lat="45.53877" lon="6.91511">
        <ele>1616.11</ele>
        <time>2015-03-19T14:17:43Z</time>
      </trkpt>
      <trkpt lat="45.53885" lon="6.91502">
        <ele>1615.15</ele>
        <time>2015-03-19T14:17:53Z</time>
      </trkpt>
      <trkpt lat="45.53892" lon="6.91491">
        <ele>1614.19</ele>
        <time>2015-03-19T14:18:02Z</time>
      </trkpt>
      <trkpt lat="45.53895" lon="6.91479">
        <ele>1613.23</ele>
        <time>2015-03-19T14:18:11Z</time>
      </trkpt>
      <trkpt lat="45.53899" lon="6.91464">
        <ele>1612.27</ele>
        <time>2015-03-19T14:18:20Z</time>
      </trkpt>
      <trkpt lat="45.53901" lon="6.91452">
        <ele>1611.31</ele>
        <time>2015-03-19T14:18:29Z</time>
      </trkpt>
      <trkpt lat="45.53903" lon="6.9144">
        <ele>1609.86</ele>
        <time>2015-03-19T14:18:38Z</time>
      </trkpt>
      <trkpt lat="45.53907" lon="6.91428">
        <ele>1608.42</ele>
        <time>2015-03-19T14:18:47Z</time>
      </trkpt>
      <trkpt lat="45.53914" lon="6.91418">
        <ele>1606.5</ele>
        <time>2015-03-19T14:18:57Z</time>
      </trkpt>
      <trkpt lat="45.53917" lon="6.91407">
        <ele>1605.06</ele>
        <time>2015-03-19T14:19:09Z</time>
      </trkpt>
      <trkpt lat="45.53912" lon="6.91411">
        <ele>1604.58</ele>
        <time>2015-03-19T14:19:20Z</time>
      </trkpt>
      <trkpt lat="45.53908" lon="6.9142">
        <ele>1602.66</ele>
        <time>2015-03-19T14:19:30Z</time>
      </trkpt>
      <trkpt lat="45.53901" lon="6.91429">
        <ele>1601.69</ele>
        <time>2015-03-19T14:19:39Z</time>
      </trkpt>
      <trkpt lat="45.53894" lon="6.91437">
        <ele>1600.25</ele>
        <time>2015-03-19T14:19:49Z</time>
      </trkpt>
      <trkpt lat="45.53887" lon="6.91445">
        <ele>1598.81</ele>
        <time>2015-03-19T14:19:58Z</time>
      </trkpt>
      <trkpt lat="45.53879" lon="6.91455">
        <ele>1598.33</ele>
        <time>2015-03-19T14:20:08Z</time>
      </trkpt>
      <trkpt lat="45.53872" lon="6.91463">
        <ele>1596.41</ele>
        <time>2015-03-19T14:20:17Z</time>
      </trkpt>
      <trkpt lat="45.53866" lon="6.91471">
        <ele>1595.93</ele>
        <time>2015-03-19T14:20:26Z</time>
      </trkpt>
      <trkpt lat="45.53856" lon="6.91478">
        <ele>1594.48</ele>
        <time>2015-03-19T14:20:35Z</time>
      </trkpt>
      <trkpt lat="45.53852" lon="6.91488">
        <ele>1593.52</ele>
        <time>2015-03-19T14:20:43Z</time>
      </trkpt>
      <trkpt lat="45.53841" lon="6.91486">
        <ele>1592.56</ele>
        <time>2015-03-19T14:20:55Z</time>
      </trkpt>
      <trkpt lat="45.53845" lon="6.9147">
        <ele>1591.12</ele>
        <time>2015-03-19T14:21:08Z</time>
      </trkpt>
      <trkpt lat="45.53852" lon="6.91457">
        <ele>1590.16</ele>
        <time>2015-03-19T14:21:18Z</time>
      </trkpt>
      <trkpt lat="45.53857" lon="6.91444">
        <ele>1589.2</ele>
        <time>2015-03-19T14:21:28Z</time>
      </trkpt>
      <trkpt lat="45.53861" lon="6.91431">
        <ele>1587.27</ele>
        <time>2015-03-19T14:21:39Z</time>
      </trkpt>
      <trkpt lat="45.53856" lon="6.91438">
        <ele>1585.83</ele>
        <time>2015-03-19T14:21:49Z</time>
      </trkpt>
      <trkpt lat="45.5385" lon="6.91448">
        <ele>1584.87</ele>
        <time>2015-03-19T14:21:59Z</time>
      </trkpt>
      <trkpt lat="45.53844" lon="6.91457">
        <ele>1583.43</ele>
        <time>2015-03-19T14:22:09Z</time>
      </trkpt>
      <trkpt lat="45.53832" lon="6.9147">
        <ele>1581.51</ele>
        <time>2015-03-19T14:22:25Z</time>
      </trkpt>
      <trkpt lat="45.53816" lon="6.9148">
        <ele>1579.1</ele>
        <time>2015-03-19T14:22:44Z</time>
      </trkpt>
      <trkpt lat="45.53803" lon="6.91485">
        <ele>1578.14</ele>
        <time>2015-03-19T14:22:56Z</time>
      </trkpt>
      <trkpt lat="45.53794" lon="6.91493">
        <ele>1576.7</ele>
        <time>2015-03-19T14:23:10Z</time>
      </trkpt>
      <trkpt lat="45.53786" lon="6.91483">
        <ele>1575.26</ele>
        <time>2015-03-19T14:23:20Z</time>
      </trkpt>
      <trkpt lat="45.53795" lon="6.91476">
        <ele>1574.3</ele>
        <time>2015-03-19T14:23:29Z</time>
      </trkpt>
      <trkpt lat="45.53804" lon="6.91468">
        <ele>1573.33</ele>
        <time>2015-03-19T14:23:39Z</time>
      </trkpt>
      <trkpt lat="45.53814" lon="6.9146">
        <ele>1571.41</ele>
        <time>2015-03-19T14:23:50Z</time>
      </trkpt>
      <trkpt lat="45.53818" lon="6.91448">
        <ele>1570.45</ele>
        <time>2015-03-19T14:24:00Z</time>
      </trkpt>
      <trkpt lat="45.53819" lon="6.91434">
        <ele>1569.01</ele>
        <time>2015-03-19T14:24:10Z</time>
      </trkpt>
      <trkpt lat="45.53821" lon="6.91417">
        <ele>1567.57</ele>
        <time>2015-03-19T14:24:21Z</time>
      </trkpt>
      <trkpt lat="45.53817" lon="6.91419">
        <ele>1566.12</ele>
        <time>2015-03-19T14:24:38Z</time>
      </trkpt>
      <trkpt lat="45.5382" lon="6.91433">
        <ele>1564.68</ele>
        <time>2015-03-19T14:24:48Z</time>
      </trkpt>
      <trkpt lat="45.53814" lon="6.91442">
        <ele>1564.2</ele>
        <time>2015-03-19T14:24:57Z</time>
      </trkpt>
      <trkpt lat="45.53806" lon="6.91447">
        <ele>1563.24</ele>
        <time>2015-03-19T14:25:06Z</time>
      </trkpt>
      <trkpt lat="45.53795" lon="6.91455">
        <ele>1561.8</ele>
        <time>2015-03-19T14:25:16Z</time>
      </trkpt>
      <trkpt lat="45.53784" lon="6.91465">
        <ele>1560.84</ele>
        <time>2015-03-19T14:25:27Z</time>
      </trkpt>
      <trkpt lat="45.53772" lon="6.9147">
        <ele>1559.4</ele>
        <time>2015-03-19T14:25:37Z</time>
      </trkpt>
      <trkpt lat="45.53764" lon="6.91479">
        <ele>1557.95</ele>
        <time>2015-03-19T14:25:47Z</time>
      </trkpt>
      <trkpt lat="45.53758" lon="6.91488">
        <ele>1557.47</ele>
        <time>2015-03-19T14:25:57Z</time>
      </trkpt>
      <trkpt lat="45.5375" lon="6.9148">
        <ele>1556.03</ele>
        <time>2015-03-19T14:26:07Z</time>
      </trkpt>
      <trkpt lat="45.53759" lon="6.9147">
        <ele>1554.59</ele>
        <time>2015-03-19T14:26:19Z</time>
      </trkpt>
      <trkpt lat="45.53768" lon="6.91462">
        <ele>1554.11</ele>
        <time>2015-03-19T14:26:29Z</time>
      </trkpt>
      <trkpt lat="45.53776" lon="6.91455">
        <ele>1552.67</ele>
        <time>2015-03-19T14:26:39Z</time>
      </trkpt>
      <trkpt lat="45.53784" lon="6.91442">
        <ele>1550.74</ele>
        <time>2015-03-19T14:26:50Z</time>
      </trkpt>
      <trkpt lat="45.53786" lon="6.91428">
        <ele>1549.78</ele>
        <time>2015-03-19T14:27:00Z</time>
      </trkpt>
      <trkpt lat="45.53789" lon="6.91407">
        <ele>1547.86</ele>
        <time>2015-03-19T14:27:10Z</time>
      </trkpt>
      <trkpt lat="45.53793" lon="6.91393">
        <ele>1546.9</ele>
        <time>2015-03-19T14:27:19Z</time>
      </trkpt>
      <trkpt lat="45.53799" lon="6.91379">
        <ele>1544.98</ele>
        <time>2015-03-19T14:27:31Z</time>
      </trkpt>
      <trkpt lat="45.53804" lon="6.91365">
        <ele>1544.01</ele>
        <time>2015-03-19T14:27:41Z</time>
      </trkpt>
      <trkpt lat="45.53813" lon="6.91351">
        <ele>1542.57</ele>
        <time>2015-03-19T14:27:51Z</time>
      </trkpt>
      <trkpt lat="45.53824" lon="6.91338">
        <ele>1540.65</ele>
        <time>2015-03-19T14:28:01Z</time>
      </trkpt>
      <trkpt lat="45.53831" lon="6.91327">
        <ele>1539.21</ele>
        <time>2015-03-19T14:28:11Z</time>
      </trkpt>
      <trkpt lat="45.5384" lon="6.91319">
        <ele>1537.77</ele>
        <time>2015-03-19T14:28:21Z</time>
      </trkpt>
      <trkpt lat="45.53848" lon="6.91306">
        <ele>1536.32</ele>
        <time>2015-03-19T14:28:32Z</time>
      </trkpt>
      <trkpt lat="45.5385" lon="6.91293">
        <ele>1533.92</ele>
        <time>2015-03-19T14:28:43Z</time>
      </trkpt>
      <trkpt lat="45.53842" lon="6.91286">
        <ele>1532.48</ele>
        <time>2015-03-19T14:28:53Z</time>
      </trkpt>
      <trkpt lat="45.53836" lon="6.9129">
        <ele>1531.04</ele>
        <time>2015-03-19T14:29:05Z</time>
      </trkpt>
      <trkpt lat="45.53835" lon="6.91303">
        <ele>1529.59</ele>
        <time>2015-03-19T14:30:21Z</time>
      </trkpt>
      <trkpt lat="45.53825" lon="6.91312">
        <ele>1528.63</ele>
        <time>2015-03-19T14:30:34Z</time>
      </trkpt>
      <trkpt lat="45.53809" lon="6.91313">
        <ele>1528.15</ele>
        <time>2015-03-19T14:30:44Z</time>
      </trkpt>
      <trkpt lat="45.53798" lon="6.91319">
        <ele>1527.67</ele>
        <time>2015-03-19T14:30:54Z</time>
      </trkpt>
      <trkpt lat="45.53792" lon="6.91325">
        <ele>1527.19</ele>
        <time>2015-03-19T14:31:11Z</time>
      </trkpt>
      <trkpt lat="45.53785" lon="6.91334">
        <ele>1526.71</ele>
        <time>2015-03-19T14:31:21Z</time>
      </trkpt>
      <trkpt lat="45.53778" lon="6.91345">
        <ele>1525.27</ele>
        <time>2015-03-19T14:31:31Z</time>
      </trkpt>
      <trkpt lat="45.53771" lon="6.91354">
        <ele>1524.31</ele>
        <time>2015-03-19T14:31:40Z</time>
      </trkpt>
      <trkpt lat="45.53764" lon="6.91363">
        <ele>1524.31</ele>
        <time>2015-03-19T14:31:49Z</time>
      </trkpt>
      <trkpt lat="45.53758" lon="6.91372">
        <ele>1523.35</ele>
        <time>2015-03-19T14:31:59Z</time>
      </trkpt>
      <trkpt lat="45.53751" lon="6.91381">
        <ele>1521.9</ele>
        <time>2015-03-19T14:32:09Z</time>
      </trkpt>
      <trkpt lat="45.53745" lon="6.91391">
        <ele>1520.94</ele>
        <time>2015-03-19T14:32:21Z</time>
      </trkpt>
      <trkpt lat="45.5374" lon="6.91404">
        <ele>1519.5</ele>
        <time>2015-03-19T14:32:31Z</time>
      </trkpt>
      <trkpt lat="45.53732" lon="6.91416">
        <ele>1518.54</ele>
        <time>2015-03-19T14:32:43Z</time>
      </trkpt>
      <trkpt lat="45.53717" lon="6.91419">
        <ele>1517.1</ele>
        <time>2015-03-19T14:32:53Z</time>
      </trkpt>
      <trkpt lat="45.53712" lon="6.9141">
        <ele>1516.14</ele>
        <time>2015-03-19T14:33:02Z</time>
      </trkpt>
      <trkpt lat="45.53714" lon="6.91395">
        <ele>1515.18</ele>
        <time>2015-03-19T14:33:12Z</time>
      </trkpt>
      <trkpt lat="45.53714" lon="6.91379">
        <ele>1513.73</ele>
        <time>2015-03-19T14:33:23Z</time>
      </trkpt>
      <trkpt lat="45.5372" lon="6.91364">
        <ele>1512.29</ele>
        <time>2015-03-19T14:33:34Z</time>
      </trkpt>
      <trkpt lat="45.53727" lon="6.91351">
        <ele>1510.85</ele>
        <time>2015-03-19T14:33:45Z</time>
      </trkpt>
      <trkpt lat="45.53734" lon="6.9134">
        <ele>1509.89</ele>
        <time>2015-03-19T14:33:54Z</time>
      </trkpt>
      <trkpt lat="45.53735" lon="6.91325">
        <ele>1508.45</ele>
        <time>2015-03-19T14:34:05Z</time>
      </trkpt>
      <trkpt lat="45.53742" lon="6.91311">
        <ele>1507.48</ele>
        <time>2015-03-19T14:34:17Z</time>
      </trkpt>
      <trkpt lat="45.5375" lon="6.91299">
        <ele>1505.56</ele>
        <time>2015-03-19T14:34:28Z</time>
      </trkpt>
      <trkpt lat="45.53759" lon="6.91287">
        <ele>1504.6</ele>
        <time>2015-03-19T14:34:38Z</time>
      </trkpt>
      <trkpt lat="45.53761" lon="6.91274">
        <ele>1503.64</ele>
        <time>2015-03-19T14:35:32Z</time>
      </trkpt>
      <trkpt lat="45.53754" lon="6.91279">
        <ele>1502.2</ele>
        <time>2015-03-19T14:35:45Z</time>
      </trkpt>
      <trkpt lat="45.53752" lon="6.9129">
        <ele>1501.72</ele>
        <time>2015-03-19T14:35:58Z</time>
      </trkpt>
      <trkpt lat="45.53745" lon="6.91301">
        <ele>1501.24</ele>
        <time>2015-03-19T14:36:13Z</time>
      </trkpt>
      <trkpt lat="45.53741" lon="6.91295">
        <ele>1500.76</ele>
        <time>2015-03-19T14:40:08Z</time>
      </trkpt>
    </trkseg>
  </trk>
</gpx>